<?xml version="1.0" encoding="UTF-8" standalone="no" ?>
<gpx xmlns="http://www.topografix.com/GPX/1/1" xmlns:xsi="http://www.w3.org/2001/XMLSchema-instance" xsi:schemaLocation="http://www.topografix.com/GPX/1/1 http://www.topografix.com/GPX/1/1/gpx.xsd" version="1.1" creator="VisuGPX - https://www.visugpx.com">
  <metadata>
    <name>Combe de Tardevant, Aravis</name>
    <desc><![CDATA[Oublié de démarrer le GPS au parking: départ de la trace dans la forêt sous la combe de Tardevant.
Journée merveilleuse: les Aravis resplendissants de neige étincelante; petite poudreuse sur fond dur sans risque malgré la tempête récente; vue depuis le col jusqu'à la mer... OK... jusqu'aux Ecrins.]]></desc>
  </metadata>
  <trk>
    <name><![CDATA[Combe de Tardevant, Aravis_1]]></name>
    <trkseg>
      <trkpt lat="45.93364" lon="6.50533">
        <ele>1518</ele>
        <time>2022-04-10T08:36:26Z</time>
      </trkpt>
      <trkpt lat="45.93387" lon="6.50563">
        <ele>1517</ele>
        <time>2022-04-10T08:37:14Z</time>
      </trkpt>
      <trkpt lat="45.93387" lon="6.5058">
        <ele>1523</ele>
        <time>2022-04-10T08:37:39Z</time>
      </trkpt>
      <trkpt lat="45.93394" lon="6.50592">
        <ele>1523</ele>
        <time>2022-04-10T08:37:50Z</time>
      </trkpt>
      <trkpt lat="45.93388" lon="6.50605">
        <ele>1523</ele>
        <time>2022-04-10T08:38:44Z</time>
      </trkpt>
      <trkpt lat="45.9339" lon="6.50623">
        <ele>1521</ele>
        <time>2022-04-10T08:39:03Z</time>
      </trkpt>
      <trkpt lat="45.934" lon="6.50632">
        <ele>1521</ele>
        <time>2022-04-10T08:39:20Z</time>
      </trkpt>
      <trkpt lat="45.93417" lon="6.50629">
        <ele>1521</ele>
        <time>2022-04-10T08:39:37Z</time>
      </trkpt>
      <trkpt lat="45.93429" lon="6.50641">
        <ele>1520</ele>
        <time>2022-04-10T08:39:59Z</time>
      </trkpt>
      <trkpt lat="45.93427" lon="6.50662">
        <ele>1520</ele>
        <time>2022-04-10T08:40:12Z</time>
      </trkpt>
      <trkpt lat="45.93435" lon="6.50678">
        <ele>1520</ele>
        <time>2022-04-10T08:40:42Z</time>
      </trkpt>
      <trkpt lat="45.93447" lon="6.5069">
        <ele>1520</ele>
        <time>2022-04-10T08:41:21Z</time>
      </trkpt>
      <trkpt lat="45.93468" lon="6.50719">
        <ele>1521</ele>
        <time>2022-04-10T08:41:50Z</time>
      </trkpt>
      <trkpt lat="45.93477" lon="6.50748">
        <ele>1521</ele>
        <time>2022-04-10T08:42:48Z</time>
      </trkpt>
      <trkpt lat="45.93491" lon="6.50757">
        <ele>1525</ele>
        <time>2022-04-10T08:43:24Z</time>
      </trkpt>
      <trkpt lat="45.93501" lon="6.50771">
        <ele>1526</ele>
        <time>2022-04-10T08:43:48Z</time>
      </trkpt>
      <trkpt lat="45.93509" lon="6.50783">
        <ele>1526</ele>
        <time>2022-04-10T08:43:59Z</time>
      </trkpt>
      <trkpt lat="45.93524" lon="6.50803">
        <ele>1528</ele>
        <time>2022-04-10T08:44:15Z</time>
      </trkpt>
      <trkpt lat="45.93533" lon="6.50822">
        <ele>1529</ele>
        <time>2022-04-10T08:44:30Z</time>
      </trkpt>
      <trkpt lat="45.93536" lon="6.50839">
        <ele>1529</ele>
        <time>2022-04-10T08:45:00Z</time>
      </trkpt>
      <trkpt lat="45.93524" lon="6.50848">
        <ele>1530</ele>
        <time>2022-04-10T08:45:17Z</time>
      </trkpt>
      <trkpt lat="45.93524" lon="6.50869">
        <ele>1536</ele>
        <time>2022-04-10T08:45:55Z</time>
      </trkpt>
      <trkpt lat="45.9352" lon="6.50883">
        <ele>1538</ele>
        <time>2022-04-10T08:46:14Z</time>
      </trkpt>
      <trkpt lat="45.93504" lon="6.50887">
        <ele>1545</ele>
        <time>2022-04-10T08:46:56Z</time>
      </trkpt>
      <trkpt lat="45.93489" lon="6.50888">
        <ele>1547</ele>
        <time>2022-04-10T08:47:00Z</time>
      </trkpt>
      <trkpt lat="45.93476" lon="6.50889">
        <ele>1550</ele>
        <time>2022-04-10T08:47:07Z</time>
      </trkpt>
      <trkpt lat="45.93466" lon="6.50897">
        <ele>1554</ele>
        <time>2022-04-10T08:47:20Z</time>
      </trkpt>
      <trkpt lat="45.93458" lon="6.50897">
        <ele>1559</ele>
        <time>2022-04-10T08:47:33Z</time>
      </trkpt>
      <trkpt lat="45.93443" lon="6.50899">
        <ele>1574</ele>
        <time>2022-04-10T08:47:52Z</time>
      </trkpt>
      <trkpt lat="45.93429" lon="6.50892">
        <ele>1582</ele>
        <time>2022-04-10T08:48:02Z</time>
      </trkpt>
      <trkpt lat="45.93416" lon="6.50888">
        <ele>1582</ele>
        <time>2022-04-10T08:48:14Z</time>
      </trkpt>
      <trkpt lat="45.93405" lon="6.50886">
        <ele>1581</ele>
        <time>2022-04-10T08:48:24Z</time>
      </trkpt>
      <trkpt lat="45.93394" lon="6.50881">
        <ele>1580</ele>
        <time>2022-04-10T08:48:42Z</time>
      </trkpt>
      <trkpt lat="45.93381" lon="6.50875">
        <ele>1576</ele>
        <time>2022-04-10T08:48:59Z</time>
      </trkpt>
      <trkpt lat="45.93369" lon="6.50874">
        <ele>1573</ele>
        <time>2022-04-10T08:49:16Z</time>
      </trkpt>
      <trkpt lat="45.93357" lon="6.50875">
        <ele>1572</ele>
        <time>2022-04-10T08:49:24Z</time>
      </trkpt>
      <trkpt lat="45.93346" lon="6.50873">
        <ele>1571</ele>
        <time>2022-04-10T08:49:36Z</time>
      </trkpt>
      <trkpt lat="45.93321" lon="6.50862">
        <ele>1572</ele>
        <time>2022-04-10T08:51:28Z</time>
      </trkpt>
      <trkpt lat="45.93312" lon="6.50849">
        <ele>1586</ele>
        <time>2022-04-10T08:51:49Z</time>
      </trkpt>
      <trkpt lat="45.933" lon="6.50843">
        <ele>1594</ele>
        <time>2022-04-10T08:52:06Z</time>
      </trkpt>
      <trkpt lat="45.93289" lon="6.50837">
        <ele>1614</ele>
        <time>2022-04-10T08:53:05Z</time>
      </trkpt>
      <trkpt lat="45.93277" lon="6.50834">
        <ele>1621</ele>
        <time>2022-04-10T08:53:25Z</time>
      </trkpt>
      <trkpt lat="45.93269" lon="6.50827">
        <ele>1626</ele>
        <time>2022-04-10T08:53:33Z</time>
      </trkpt>
      <trkpt lat="45.93258" lon="6.5082">
        <ele>1631</ele>
        <time>2022-04-10T08:53:46Z</time>
      </trkpt>
      <trkpt lat="45.93249" lon="6.5082">
        <ele>1635</ele>
        <time>2022-04-10T08:54:02Z</time>
      </trkpt>
      <trkpt lat="45.93241" lon="6.50816">
        <ele>1637</ele>
        <time>2022-04-10T08:54:18Z</time>
      </trkpt>
      <trkpt lat="45.93234" lon="6.50813">
        <ele>1639</ele>
        <time>2022-04-10T08:54:37Z</time>
      </trkpt>
      <trkpt lat="45.93222" lon="6.50815">
        <ele>1642</ele>
        <time>2022-04-10T08:54:55Z</time>
      </trkpt>
      <trkpt lat="45.93199" lon="6.50797">
        <ele>1648</ele>
        <time>2022-04-10T08:55:31Z</time>
      </trkpt>
      <trkpt lat="45.93185" lon="6.50807">
        <ele>1658</ele>
        <time>2022-04-10T08:56:09Z</time>
      </trkpt>
      <trkpt lat="45.93177" lon="6.50808">
        <ele>1666</ele>
        <time>2022-04-10T08:59:35Z</time>
      </trkpt>
      <trkpt lat="45.9317" lon="6.50811">
        <ele>1669</ele>
        <time>2022-04-10T08:59:51Z</time>
      </trkpt>
      <trkpt lat="45.93162" lon="6.50813">
        <ele>1670</ele>
        <time>2022-04-10T09:00:03Z</time>
      </trkpt>
      <trkpt lat="45.93155" lon="6.50814">
        <ele>1671</ele>
        <time>2022-04-10T09:00:21Z</time>
      </trkpt>
      <trkpt lat="45.93148" lon="6.50819">
        <ele>1672</ele>
        <time>2022-04-10T09:00:36Z</time>
      </trkpt>
      <trkpt lat="45.93147" lon="6.50832">
        <ele>1674</ele>
        <time>2022-04-10T09:00:46Z</time>
      </trkpt>
      <trkpt lat="45.93154" lon="6.50854">
        <ele>1682</ele>
        <time>2022-04-10T09:01:21Z</time>
      </trkpt>
      <trkpt lat="45.93155" lon="6.50867">
        <ele>1685</ele>
        <time>2022-04-10T09:01:31Z</time>
      </trkpt>
      <trkpt lat="45.93149" lon="6.50868">
        <ele>1690</ele>
        <time>2022-04-10T09:02:03Z</time>
      </trkpt>
      <trkpt lat="45.93142" lon="6.50865">
        <ele>1691</ele>
        <time>2022-04-10T09:02:21Z</time>
      </trkpt>
      <trkpt lat="45.93141" lon="6.50877">
        <ele>1696</ele>
        <time>2022-04-10T09:02:41Z</time>
      </trkpt>
      <trkpt lat="45.93142" lon="6.50888">
        <ele>1698</ele>
        <time>2022-04-10T09:02:54Z</time>
      </trkpt>
      <trkpt lat="45.93143" lon="6.50898">
        <ele>1699</ele>
        <time>2022-04-10T09:03:12Z</time>
      </trkpt>
      <trkpt lat="45.93145" lon="6.50912">
        <ele>1701</ele>
        <time>2022-04-10T09:03:27Z</time>
      </trkpt>
      <trkpt lat="45.93148" lon="6.50922">
        <ele>1703</ele>
        <time>2022-04-10T09:03:42Z</time>
      </trkpt>
      <trkpt lat="45.93154" lon="6.50931">
        <ele>1706</ele>
        <time>2022-04-10T09:03:58Z</time>
      </trkpt>
      <trkpt lat="45.93156" lon="6.50941">
        <ele>1707</ele>
        <time>2022-04-10T09:04:09Z</time>
      </trkpt>
      <trkpt lat="45.93162" lon="6.50951">
        <ele>1712</ele>
        <time>2022-04-10T09:04:27Z</time>
      </trkpt>
      <trkpt lat="45.93167" lon="6.50959">
        <ele>1713</ele>
        <time>2022-04-10T09:04:40Z</time>
      </trkpt>
      <trkpt lat="45.93168" lon="6.50973">
        <ele>1716</ele>
        <time>2022-04-10T09:04:57Z</time>
      </trkpt>
      <trkpt lat="45.93174" lon="6.50986">
        <ele>1719</ele>
        <time>2022-04-10T09:05:15Z</time>
      </trkpt>
      <trkpt lat="45.93175" lon="6.51003">
        <ele>1723</ele>
        <time>2022-04-10T09:05:39Z</time>
      </trkpt>
      <trkpt lat="45.9318" lon="6.51012">
        <ele>1727</ele>
        <time>2022-04-10T09:05:52Z</time>
      </trkpt>
      <trkpt lat="45.93173" lon="6.51016">
        <ele>1731</ele>
        <time>2022-04-10T09:06:20Z</time>
      </trkpt>
      <trkpt lat="45.93158" lon="6.51007">
        <ele>1733</ele>
        <time>2022-04-10T09:06:53Z</time>
      </trkpt>
      <trkpt lat="45.93151" lon="6.51005">
        <ele>1735</ele>
        <time>2022-04-10T09:07:08Z</time>
      </trkpt>
      <trkpt lat="45.93143" lon="6.51004">
        <ele>1737</ele>
        <time>2022-04-10T09:07:20Z</time>
      </trkpt>
      <trkpt lat="45.93137" lon="6.51002">
        <ele>1738</ele>
        <time>2022-04-10T09:07:27Z</time>
      </trkpt>
      <trkpt lat="45.9313" lon="6.50997">
        <ele>1740</ele>
        <time>2022-04-10T09:07:46Z</time>
      </trkpt>
      <trkpt lat="45.93113" lon="6.50996">
        <ele>1743</ele>
        <time>2022-04-10T09:08:45Z</time>
      </trkpt>
      <trkpt lat="45.93098" lon="6.50993">
        <ele>1745</ele>
        <time>2022-04-10T09:09:10Z</time>
      </trkpt>
      <trkpt lat="45.9309" lon="6.50993">
        <ele>1750</ele>
        <time>2022-04-10T09:09:36Z</time>
      </trkpt>
      <trkpt lat="45.93084" lon="6.50995">
        <ele>1752</ele>
        <time>2022-04-10T09:09:51Z</time>
      </trkpt>
      <trkpt lat="45.9307" lon="6.51002">
        <ele>1757</ele>
        <time>2022-04-10T09:10:21Z</time>
      </trkpt>
      <trkpt lat="45.93062" lon="6.5101">
        <ele>1759</ele>
        <time>2022-04-10T09:10:34Z</time>
      </trkpt>
      <trkpt lat="45.93062" lon="6.51021">
        <ele>1762</ele>
        <time>2022-04-10T09:10:54Z</time>
      </trkpt>
      <trkpt lat="45.93074" lon="6.51028">
        <ele>1765</ele>
        <time>2022-04-10T09:11:21Z</time>
      </trkpt>
      <trkpt lat="45.93074" lon="6.51036">
        <ele>1765</ele>
        <time>2022-04-10T09:11:48Z</time>
      </trkpt>
      <trkpt lat="45.93071" lon="6.51039">
        <ele>1767</ele>
        <time>2022-04-10T09:15:49Z</time>
      </trkpt>
      <trkpt lat="45.93064" lon="6.51045">
        <ele>1771</ele>
        <time>2022-04-10T09:18:53Z</time>
      </trkpt>
      <trkpt lat="45.93054" lon="6.51053">
        <ele>1771</ele>
        <time>2022-04-10T09:19:08Z</time>
      </trkpt>
      <trkpt lat="45.9305" lon="6.51062">
        <ele>1775</ele>
        <time>2022-04-10T09:19:22Z</time>
      </trkpt>
      <trkpt lat="45.93046" lon="6.51075">
        <ele>1779</ele>
        <time>2022-04-10T09:19:40Z</time>
      </trkpt>
      <trkpt lat="45.93045" lon="6.5109">
        <ele>1782</ele>
        <time>2022-04-10T09:20:02Z</time>
      </trkpt>
      <trkpt lat="45.93041" lon="6.51099">
        <ele>1786</ele>
        <time>2022-04-10T09:20:18Z</time>
      </trkpt>
      <trkpt lat="45.9304" lon="6.51111">
        <ele>1787</ele>
        <time>2022-04-10T09:21:11Z</time>
      </trkpt>
      <trkpt lat="45.93038" lon="6.51122">
        <ele>1788</ele>
        <time>2022-04-10T09:21:21Z</time>
      </trkpt>
      <trkpt lat="45.93032" lon="6.51129">
        <ele>1788</ele>
        <time>2022-04-10T09:21:32Z</time>
      </trkpt>
      <trkpt lat="45.93027" lon="6.51141">
        <ele>1789</ele>
        <time>2022-04-10T09:21:51Z</time>
      </trkpt>
      <trkpt lat="45.93022" lon="6.5115">
        <ele>1793</ele>
        <time>2022-04-10T09:22:07Z</time>
      </trkpt>
      <trkpt lat="45.93026" lon="6.51161">
        <ele>1794</ele>
        <time>2022-04-10T09:22:24Z</time>
      </trkpt>
      <trkpt lat="45.93032" lon="6.51171">
        <ele>1798</ele>
        <time>2022-04-10T09:22:37Z</time>
      </trkpt>
      <trkpt lat="45.93038" lon="6.51177">
        <ele>1799</ele>
        <time>2022-04-10T09:22:52Z</time>
      </trkpt>
      <trkpt lat="45.93047" lon="6.51187">
        <ele>1802</ele>
        <time>2022-04-10T09:23:10Z</time>
      </trkpt>
      <trkpt lat="45.93042" lon="6.51198">
        <ele>1805</ele>
        <time>2022-04-10T09:23:34Z</time>
      </trkpt>
      <trkpt lat="45.93027" lon="6.51202">
        <ele>1811</ele>
        <time>2022-04-10T09:24:06Z</time>
      </trkpt>
      <trkpt lat="45.93021" lon="6.5121">
        <ele>1815</ele>
        <time>2022-04-10T09:24:24Z</time>
      </trkpt>
      <trkpt lat="45.93017" lon="6.5122">
        <ele>1817</ele>
        <time>2022-04-10T09:24:37Z</time>
      </trkpt>
      <trkpt lat="45.93019" lon="6.51236">
        <ele>1819</ele>
        <time>2022-04-10T09:24:58Z</time>
      </trkpt>
      <trkpt lat="45.9302" lon="6.51248">
        <ele>1820</ele>
        <time>2022-04-10T09:25:08Z</time>
      </trkpt>
      <trkpt lat="45.93023" lon="6.51259">
        <ele>1823</ele>
        <time>2022-04-10T09:25:26Z</time>
      </trkpt>
      <trkpt lat="45.93009" lon="6.51271">
        <ele>1826</ele>
        <time>2022-04-10T09:26:22Z</time>
      </trkpt>
      <trkpt lat="45.93" lon="6.51274">
        <ele>1827</ele>
        <time>2022-04-10T09:26:32Z</time>
      </trkpt>
      <trkpt lat="45.92994" lon="6.51281">
        <ele>1829</ele>
        <time>2022-04-10T09:26:46Z</time>
      </trkpt>
      <trkpt lat="45.92989" lon="6.51289">
        <ele>1830</ele>
        <time>2022-04-10T09:26:59Z</time>
      </trkpt>
      <trkpt lat="45.92986" lon="6.51303">
        <ele>1834</ele>
        <time>2022-04-10T09:27:13Z</time>
      </trkpt>
      <trkpt lat="45.92982" lon="6.51313">
        <ele>1838</ele>
        <time>2022-04-10T09:27:22Z</time>
      </trkpt>
      <trkpt lat="45.92982" lon="6.51337">
        <ele>1842</ele>
        <time>2022-04-10T09:27:43Z</time>
      </trkpt>
      <trkpt lat="45.92983" lon="6.51347">
        <ele>1845</ele>
        <time>2022-04-10T09:27:54Z</time>
      </trkpt>
      <trkpt lat="45.92982" lon="6.51358">
        <ele>1846</ele>
        <time>2022-04-10T09:28:04Z</time>
      </trkpt>
      <trkpt lat="45.9299" lon="6.51361">
        <ele>1847</ele>
        <time>2022-04-10T09:28:15Z</time>
      </trkpt>
      <trkpt lat="45.92998" lon="6.51362">
        <ele>1850</ele>
        <time>2022-04-10T09:28:26Z</time>
      </trkpt>
      <trkpt lat="45.93005" lon="6.51368">
        <ele>1851</ele>
        <time>2022-04-10T09:28:40Z</time>
      </trkpt>
      <trkpt lat="45.93007" lon="6.51377">
        <ele>1852</ele>
        <time>2022-04-10T09:28:46Z</time>
      </trkpt>
      <trkpt lat="45.93009" lon="6.51385">
        <ele>1853</ele>
        <time>2022-04-10T09:29:04Z</time>
      </trkpt>
      <trkpt lat="45.92999" lon="6.51397">
        <ele>1855</ele>
        <time>2022-04-10T09:29:30Z</time>
      </trkpt>
      <trkpt lat="45.92996" lon="6.51404">
        <ele>1858</ele>
        <time>2022-04-10T09:29:45Z</time>
      </trkpt>
      <trkpt lat="45.92993" lon="6.51412">
        <ele>1860</ele>
        <time>2022-04-10T09:29:57Z</time>
      </trkpt>
      <trkpt lat="45.92986" lon="6.51414">
        <ele>1862</ele>
        <time>2022-04-10T09:30:19Z</time>
      </trkpt>
      <trkpt lat="45.92979" lon="6.51417">
        <ele>1864</ele>
        <time>2022-04-10T09:30:28Z</time>
      </trkpt>
      <trkpt lat="45.92976" lon="6.51427">
        <ele>1865</ele>
        <time>2022-04-10T09:30:43Z</time>
      </trkpt>
      <trkpt lat="45.92976" lon="6.51438">
        <ele>1870</ele>
        <time>2022-04-10T09:31:02Z</time>
      </trkpt>
      <trkpt lat="45.92968" lon="6.5144">
        <ele>1872</ele>
        <time>2022-04-10T09:31:27Z</time>
      </trkpt>
      <trkpt lat="45.92961" lon="6.51442">
        <ele>1875</ele>
        <time>2022-04-10T09:31:37Z</time>
      </trkpt>
      <trkpt lat="45.92959" lon="6.51457">
        <ele>1878</ele>
        <time>2022-04-10T09:32:09Z</time>
      </trkpt>
      <trkpt lat="45.92957" lon="6.51465">
        <ele>1887</ele>
        <time>2022-04-10T09:32:40Z</time>
      </trkpt>
      <trkpt lat="45.92941" lon="6.51469">
        <ele>1889</ele>
        <time>2022-04-10T09:33:16Z</time>
      </trkpt>
      <trkpt lat="45.92935" lon="6.51472">
        <ele>1890</ele>
        <time>2022-04-10T09:34:20Z</time>
      </trkpt>
      <trkpt lat="45.92928" lon="6.51481">
        <ele>1893</ele>
        <time>2022-04-10T09:34:32Z</time>
      </trkpt>
      <trkpt lat="45.9293" lon="6.51491">
        <ele>1894</ele>
        <time>2022-04-10T09:34:48Z</time>
      </trkpt>
      <trkpt lat="45.92933" lon="6.51501">
        <ele>1896</ele>
        <time>2022-04-10T09:34:56Z</time>
      </trkpt>
      <trkpt lat="45.92934" lon="6.51514">
        <ele>1897</ele>
        <time>2022-04-10T09:35:10Z</time>
      </trkpt>
      <trkpt lat="45.92933" lon="6.51525">
        <ele>1901</ele>
        <time>2022-04-10T09:35:26Z</time>
      </trkpt>
      <trkpt lat="45.92933" lon="6.51538">
        <ele>1903</ele>
        <time>2022-04-10T09:35:42Z</time>
      </trkpt>
      <trkpt lat="45.92929" lon="6.51544">
        <ele>1908</ele>
        <time>2022-04-10T09:36:00Z</time>
      </trkpt>
      <trkpt lat="45.92922" lon="6.51547">
        <ele>1911</ele>
        <time>2022-04-10T09:36:23Z</time>
      </trkpt>
      <trkpt lat="45.92918" lon="6.51555">
        <ele>1914</ele>
        <time>2022-04-10T09:36:34Z</time>
      </trkpt>
      <trkpt lat="45.92919" lon="6.51566">
        <ele>1915</ele>
        <time>2022-04-10T09:36:47Z</time>
      </trkpt>
      <trkpt lat="45.9292" lon="6.51576">
        <ele>1916</ele>
        <time>2022-04-10T09:37:02Z</time>
      </trkpt>
      <trkpt lat="45.92915" lon="6.5158">
        <ele>1918</ele>
        <time>2022-04-10T09:37:18Z</time>
      </trkpt>
      <trkpt lat="45.92909" lon="6.51579">
        <ele>1921</ele>
        <time>2022-04-10T09:37:29Z</time>
      </trkpt>
      <trkpt lat="45.92904" lon="6.51581">
        <ele>1923</ele>
        <time>2022-04-10T09:37:42Z</time>
      </trkpt>
      <trkpt lat="45.92906" lon="6.51592">
        <ele>1924</ele>
        <time>2022-04-10T09:38:05Z</time>
      </trkpt>
      <trkpt lat="45.92908" lon="6.51603">
        <ele>1927</ele>
        <time>2022-04-10T09:38:18Z</time>
      </trkpt>
      <trkpt lat="45.92909" lon="6.51613">
        <ele>1929</ele>
        <time>2022-04-10T09:38:31Z</time>
      </trkpt>
      <trkpt lat="45.92903" lon="6.51615">
        <ele>1932</ele>
        <time>2022-04-10T09:38:50Z</time>
      </trkpt>
      <trkpt lat="45.92896" lon="6.51613">
        <ele>1936</ele>
        <time>2022-04-10T09:39:16Z</time>
      </trkpt>
      <trkpt lat="45.92888" lon="6.51614">
        <ele>1939</ele>
        <time>2022-04-10T09:39:30Z</time>
      </trkpt>
      <trkpt lat="45.92883" lon="6.51616">
        <ele>1942</ele>
        <time>2022-04-10T09:39:40Z</time>
      </trkpt>
      <trkpt lat="45.92883" lon="6.51627">
        <ele>1945</ele>
        <time>2022-04-10T09:40:03Z</time>
      </trkpt>
      <trkpt lat="45.92881" lon="6.51635">
        <ele>1951</ele>
        <time>2022-04-10T09:40:22Z</time>
      </trkpt>
      <trkpt lat="45.92875" lon="6.51634">
        <ele>1952</ele>
        <time>2022-04-10T09:40:29Z</time>
      </trkpt>
      <trkpt lat="45.92871" lon="6.5164">
        <ele>1954</ele>
        <time>2022-04-10T09:40:43Z</time>
      </trkpt>
      <trkpt lat="45.92874" lon="6.5165">
        <ele>1955</ele>
        <time>2022-04-10T09:41:03Z</time>
      </trkpt>
      <trkpt lat="45.92878" lon="6.51659">
        <ele>1955</ele>
        <time>2022-04-10T09:41:15Z</time>
      </trkpt>
      <trkpt lat="45.9288" lon="6.51666">
        <ele>1955</ele>
        <time>2022-04-10T09:41:29Z</time>
      </trkpt>
      <trkpt lat="45.92877" lon="6.5167">
        <ele>1958</ele>
        <time>2022-04-10T09:41:58Z</time>
      </trkpt>
      <trkpt lat="45.92871" lon="6.51672">
        <ele>1959</ele>
        <time>2022-04-10T09:42:11Z</time>
      </trkpt>
      <trkpt lat="45.92866" lon="6.5167">
        <ele>1962</ele>
        <time>2022-04-10T09:42:17Z</time>
      </trkpt>
      <trkpt lat="45.92865" lon="6.51681">
        <ele>1964</ele>
        <time>2022-04-10T09:42:42Z</time>
      </trkpt>
      <trkpt lat="45.9287" lon="6.51687">
        <ele>1964</ele>
        <time>2022-04-10T09:43:03Z</time>
      </trkpt>
      <trkpt lat="45.92872" lon="6.51697">
        <ele>1964</ele>
        <time>2022-04-10T09:43:16Z</time>
      </trkpt>
      <trkpt lat="45.92867" lon="6.51701">
        <ele>1965</ele>
        <time>2022-04-10T09:43:31Z</time>
      </trkpt>
      <trkpt lat="45.92856" lon="6.51701">
        <ele>1970</ele>
        <time>2022-04-10T09:43:55Z</time>
      </trkpt>
      <trkpt lat="45.92848" lon="6.517">
        <ele>1974</ele>
        <time>2022-04-10T09:44:13Z</time>
      </trkpt>
      <trkpt lat="45.92843" lon="6.51697">
        <ele>1976</ele>
        <time>2022-04-10T09:44:24Z</time>
      </trkpt>
      <trkpt lat="45.92837" lon="6.51693">
        <ele>1979</ele>
        <time>2022-04-10T09:44:29Z</time>
      </trkpt>
      <trkpt lat="45.92832" lon="6.51691">
        <ele>1983</ele>
        <time>2022-04-10T09:44:52Z</time>
      </trkpt>
      <trkpt lat="45.92827" lon="6.51685">
        <ele>1985</ele>
        <time>2022-04-10T09:45:01Z</time>
      </trkpt>
      <trkpt lat="45.92819" lon="6.51687">
        <ele>1989</ele>
        <time>2022-04-10T09:45:18Z</time>
      </trkpt>
      <trkpt lat="45.92815" lon="6.51692">
        <ele>1990</ele>
        <time>2022-04-10T09:45:28Z</time>
      </trkpt>
      <trkpt lat="45.92813" lon="6.51702">
        <ele>1991</ele>
        <time>2022-04-10T09:45:42Z</time>
      </trkpt>
      <trkpt lat="45.92807" lon="6.51727">
        <ele>1992</ele>
        <time>2022-04-10T09:46:21Z</time>
      </trkpt>
      <trkpt lat="45.92805" lon="6.51735">
        <ele>1992</ele>
        <time>2022-04-10T09:46:35Z</time>
      </trkpt>
      <trkpt lat="45.928" lon="6.51738">
        <ele>1992</ele>
        <time>2022-04-10T09:46:46Z</time>
      </trkpt>
      <trkpt lat="45.92794" lon="6.51742">
        <ele>1995</ele>
        <time>2022-04-10T09:46:58Z</time>
      </trkpt>
      <trkpt lat="45.92788" lon="6.51743">
        <ele>1997</ele>
        <time>2022-04-10T09:47:09Z</time>
      </trkpt>
      <trkpt lat="45.92783" lon="6.51748">
        <ele>2001</ele>
        <time>2022-04-10T09:47:25Z</time>
      </trkpt>
      <trkpt lat="45.92778" lon="6.5175">
        <ele>2003</ele>
        <time>2022-04-10T09:47:38Z</time>
      </trkpt>
      <trkpt lat="45.92786" lon="6.51764">
        <ele>2007</ele>
        <time>2022-04-10T09:48:04Z</time>
      </trkpt>
      <trkpt lat="45.9279" lon="6.5177">
        <ele>2006</ele>
        <time>2022-04-10T09:48:19Z</time>
      </trkpt>
      <trkpt lat="45.92792" lon="6.51781">
        <ele>2007</ele>
        <time>2022-04-10T09:48:49Z</time>
      </trkpt>
      <trkpt lat="45.92786" lon="6.51785">
        <ele>2021</ele>
        <time>2022-04-10T09:49:51Z</time>
      </trkpt>
      <trkpt lat="45.92782" lon="6.5179">
        <ele>2022</ele>
        <time>2022-04-10T09:50:03Z</time>
      </trkpt>
      <trkpt lat="45.92775" lon="6.51792">
        <ele>2026</ele>
        <time>2022-04-10T09:50:14Z</time>
      </trkpt>
      <trkpt lat="45.92768" lon="6.51795">
        <ele>2030</ele>
        <time>2022-04-10T09:50:31Z</time>
      </trkpt>
      <trkpt lat="45.92754" lon="6.51805">
        <ele>2034</ele>
        <time>2022-04-10T09:51:06Z</time>
      </trkpt>
      <trkpt lat="45.92763" lon="6.5182">
        <ele>2036</ele>
        <time>2022-04-10T09:51:44Z</time>
      </trkpt>
      <trkpt lat="45.92773" lon="6.51832">
        <ele>2039</ele>
        <time>2022-04-10T09:52:07Z</time>
      </trkpt>
      <trkpt lat="45.92767" lon="6.51833">
        <ele>2040</ele>
        <time>2022-04-10T09:52:29Z</time>
      </trkpt>
      <trkpt lat="45.92762" lon="6.51834">
        <ele>2040</ele>
        <time>2022-04-10T09:52:43Z</time>
      </trkpt>
      <trkpt lat="45.92759" lon="6.51841">
        <ele>2044</ele>
        <time>2022-04-10T09:52:58Z</time>
      </trkpt>
      <trkpt lat="45.92753" lon="6.51842">
        <ele>2045</ele>
        <time>2022-04-10T09:53:13Z</time>
      </trkpt>
      <trkpt lat="45.92747" lon="6.51841">
        <ele>2049</ele>
        <time>2022-04-10T09:53:21Z</time>
      </trkpt>
      <trkpt lat="45.92742" lon="6.51841">
        <ele>2052</ele>
        <time>2022-04-10T09:53:41Z</time>
      </trkpt>
      <trkpt lat="45.92735" lon="6.51837">
        <ele>2055</ele>
        <time>2022-04-10T09:53:51Z</time>
      </trkpt>
      <trkpt lat="45.9273" lon="6.51831">
        <ele>2057</ele>
        <time>2022-04-10T09:54:06Z</time>
      </trkpt>
      <trkpt lat="45.92724" lon="6.51827">
        <ele>2059</ele>
        <time>2022-04-10T09:54:19Z</time>
      </trkpt>
      <trkpt lat="45.92718" lon="6.51829">
        <ele>2063</ele>
        <time>2022-04-10T09:54:49Z</time>
      </trkpt>
      <trkpt lat="45.92713" lon="6.51827">
        <ele>2065</ele>
        <time>2022-04-10T09:55:09Z</time>
      </trkpt>
      <trkpt lat="45.92706" lon="6.51829">
        <ele>2068</ele>
        <time>2022-04-10T09:56:15Z</time>
      </trkpt>
      <trkpt lat="45.92699" lon="6.51829">
        <ele>2069</ele>
        <time>2022-04-10T09:56:22Z</time>
      </trkpt>
      <trkpt lat="45.92694" lon="6.51832">
        <ele>2070</ele>
        <time>2022-04-10T09:57:06Z</time>
      </trkpt>
      <trkpt lat="45.92681" lon="6.51836">
        <ele>2071</ele>
        <time>2022-04-10T09:57:22Z</time>
      </trkpt>
      <trkpt lat="45.92673" lon="6.51834">
        <ele>2072</ele>
        <time>2022-04-10T09:57:36Z</time>
      </trkpt>
      <trkpt lat="45.92665" lon="6.5183">
        <ele>2077</ele>
        <time>2022-04-10T09:57:49Z</time>
      </trkpt>
      <trkpt lat="45.92658" lon="6.51831">
        <ele>2078</ele>
        <time>2022-04-10T09:58:05Z</time>
      </trkpt>
      <trkpt lat="45.92641" lon="6.51833">
        <ele>2081</ele>
        <time>2022-04-10T09:58:35Z</time>
      </trkpt>
      <trkpt lat="45.9263" lon="6.51832">
        <ele>2085</ele>
        <time>2022-04-10T09:58:55Z</time>
      </trkpt>
      <trkpt lat="45.92623" lon="6.51832">
        <ele>2088</ele>
        <time>2022-04-10T09:59:09Z</time>
      </trkpt>
      <trkpt lat="45.92615" lon="6.51837">
        <ele>2088</ele>
        <time>2022-04-10T09:59:32Z</time>
      </trkpt>
      <trkpt lat="45.9261" lon="6.51838">
        <ele>2092</ele>
        <time>2022-04-10T09:59:48Z</time>
      </trkpt>
      <trkpt lat="45.92606" lon="6.51848">
        <ele>2094</ele>
        <time>2022-04-10T10:00:16Z</time>
      </trkpt>
      <trkpt lat="45.92601" lon="6.51852">
        <ele>2095</ele>
        <time>2022-04-10T10:00:36Z</time>
      </trkpt>
      <trkpt lat="45.92596" lon="6.51848">
        <ele>2096</ele>
        <time>2022-04-10T10:00:47Z</time>
      </trkpt>
      <trkpt lat="45.92592" lon="6.51843">
        <ele>2101</ele>
        <time>2022-04-10T10:01:06Z</time>
      </trkpt>
      <trkpt lat="45.92587" lon="6.51844">
        <ele>2104</ele>
        <time>2022-04-10T10:01:35Z</time>
      </trkpt>
      <trkpt lat="45.92586" lon="6.51852">
        <ele>2105</ele>
        <time>2022-04-10T10:01:47Z</time>
      </trkpt>
      <trkpt lat="45.92586" lon="6.51861">
        <ele>2104</ele>
        <time>2022-04-10T10:01:57Z</time>
      </trkpt>
      <trkpt lat="45.9258" lon="6.51856">
        <ele>2104</ele>
        <time>2022-04-10T10:02:32Z</time>
      </trkpt>
      <trkpt lat="45.92572" lon="6.51846">
        <ele>2111</ele>
        <time>2022-04-10T10:02:52Z</time>
      </trkpt>
      <trkpt lat="45.92568" lon="6.5184">
        <ele>2115</ele>
        <time>2022-04-10T10:03:04Z</time>
      </trkpt>
      <trkpt lat="45.92564" lon="6.51835">
        <ele>2116</ele>
        <time>2022-04-10T10:03:14Z</time>
      </trkpt>
      <trkpt lat="45.92558" lon="6.51833">
        <ele>2120</ele>
        <time>2022-04-10T10:03:29Z</time>
      </trkpt>
      <trkpt lat="45.92551" lon="6.51833">
        <ele>2121</ele>
        <time>2022-04-10T10:03:47Z</time>
      </trkpt>
      <trkpt lat="45.92545" lon="6.5183">
        <ele>2124</ele>
        <time>2022-04-10T10:04:00Z</time>
      </trkpt>
      <trkpt lat="45.92541" lon="6.51835">
        <ele>2125</ele>
        <time>2022-04-10T10:04:17Z</time>
      </trkpt>
      <trkpt lat="45.92541" lon="6.51843">
        <ele>2127</ele>
        <time>2022-04-10T10:04:32Z</time>
      </trkpt>
      <trkpt lat="45.92541" lon="6.51851">
        <ele>2127</ele>
        <time>2022-04-10T10:04:41Z</time>
      </trkpt>
      <trkpt lat="45.92542" lon="6.51859">
        <ele>2128</ele>
        <time>2022-04-10T10:04:49Z</time>
      </trkpt>
      <trkpt lat="45.92536" lon="6.51857">
        <ele>2131</ele>
        <time>2022-04-10T10:05:17Z</time>
      </trkpt>
      <trkpt lat="45.92531" lon="6.51854">
        <ele>2133</ele>
        <time>2022-04-10T10:05:25Z</time>
      </trkpt>
      <trkpt lat="45.92527" lon="6.51849">
        <ele>2134</ele>
        <time>2022-04-10T10:05:37Z</time>
      </trkpt>
      <trkpt lat="45.9252" lon="6.51845">
        <ele>2136</ele>
        <time>2022-04-10T10:05:52Z</time>
      </trkpt>
      <trkpt lat="45.92514" lon="6.51842">
        <ele>2138</ele>
        <time>2022-04-10T10:06:03Z</time>
      </trkpt>
      <trkpt lat="45.9251" lon="6.51847">
        <ele>2140</ele>
        <time>2022-04-10T10:06:16Z</time>
      </trkpt>
      <trkpt lat="45.92506" lon="6.51855">
        <ele>2141</ele>
        <time>2022-04-10T10:06:46Z</time>
      </trkpt>
      <trkpt lat="45.92503" lon="6.51862">
        <ele>2141</ele>
        <time>2022-04-10T10:07:00Z</time>
      </trkpt>
      <trkpt lat="45.92505" lon="6.5187">
        <ele>2142</ele>
        <time>2022-04-10T10:07:11Z</time>
      </trkpt>
      <trkpt lat="45.92503" lon="6.51878">
        <ele>2142</ele>
        <time>2022-04-10T10:07:31Z</time>
      </trkpt>
      <trkpt lat="45.925" lon="6.51885">
        <ele>2144</ele>
        <time>2022-04-10T10:07:41Z</time>
      </trkpt>
      <trkpt lat="45.92498" lon="6.51893">
        <ele>2146</ele>
        <time>2022-04-10T10:07:52Z</time>
      </trkpt>
      <trkpt lat="45.92495" lon="6.51901">
        <ele>2146</ele>
        <time>2022-04-10T10:08:05Z</time>
      </trkpt>
      <trkpt lat="45.92492" lon="6.51908">
        <ele>2148</ele>
        <time>2022-04-10T10:08:18Z</time>
      </trkpt>
      <trkpt lat="45.9249" lon="6.51915">
        <ele>2151</ele>
        <time>2022-04-10T10:08:29Z</time>
      </trkpt>
      <trkpt lat="45.92487" lon="6.51927">
        <ele>2153</ele>
        <time>2022-04-10T10:08:44Z</time>
      </trkpt>
      <trkpt lat="45.92484" lon="6.51938">
        <ele>2157</ele>
        <time>2022-04-10T10:09:00Z</time>
      </trkpt>
      <trkpt lat="45.9248" lon="6.51947">
        <ele>2159</ele>
        <time>2022-04-10T10:09:22Z</time>
      </trkpt>
      <trkpt lat="45.92482" lon="6.51956">
        <ele>2163</ele>
        <time>2022-04-10T10:09:54Z</time>
      </trkpt>
      <trkpt lat="45.92481" lon="6.51966">
        <ele>2167</ele>
        <time>2022-04-10T10:10:13Z</time>
      </trkpt>
      <trkpt lat="45.92485" lon="6.51982">
        <ele>2169</ele>
        <time>2022-04-10T10:10:53Z</time>
      </trkpt>
      <trkpt lat="45.92485" lon="6.5199">
        <ele>2170</ele>
        <time>2022-04-10T10:11:33Z</time>
      </trkpt>
      <trkpt lat="45.92486" lon="6.52017">
        <ele>2172</ele>
        <time>2022-04-10T10:11:57Z</time>
      </trkpt>
      <trkpt lat="45.9249" lon="6.5204">
        <ele>2174</ele>
        <time>2022-04-10T10:12:19Z</time>
      </trkpt>
      <trkpt lat="45.92489" lon="6.52048">
        <ele>2175</ele>
        <time>2022-04-10T10:12:28Z</time>
      </trkpt>
      <trkpt lat="45.92486" lon="6.52055">
        <ele>2176</ele>
        <time>2022-04-10T10:12:40Z</time>
      </trkpt>
      <trkpt lat="45.92485" lon="6.5207">
        <ele>2180</ele>
        <time>2022-04-10T10:12:59Z</time>
      </trkpt>
      <trkpt lat="45.92486" lon="6.52078">
        <ele>2181</ele>
        <time>2022-04-10T10:13:12Z</time>
      </trkpt>
      <trkpt lat="45.92489" lon="6.52081">
        <ele>2183</ele>
        <time>2022-04-10T10:13:21Z</time>
      </trkpt>
      <trkpt lat="45.92486" lon="6.52087">
        <ele>2184</ele>
        <time>2022-04-10T10:13:33Z</time>
      </trkpt>
      <trkpt lat="45.92486" lon="6.52095">
        <ele>2186</ele>
        <time>2022-04-10T10:13:49Z</time>
      </trkpt>
      <trkpt lat="45.9249" lon="6.52098">
        <ele>2191</ele>
        <time>2022-04-10T10:14:02Z</time>
      </trkpt>
      <trkpt lat="45.9249" lon="6.52104">
        <ele>2192</ele>
        <time>2022-04-10T10:14:15Z</time>
      </trkpt>
      <trkpt lat="45.92485" lon="6.52108">
        <ele>2193</ele>
        <time>2022-04-10T10:14:26Z</time>
      </trkpt>
      <trkpt lat="45.92479" lon="6.52107">
        <ele>2194</ele>
        <time>2022-04-10T10:14:39Z</time>
      </trkpt>
      <trkpt lat="45.92474" lon="6.52103">
        <ele>2196</ele>
        <time>2022-04-10T10:14:55Z</time>
      </trkpt>
      <trkpt lat="45.92467" lon="6.52106">
        <ele>2197</ele>
        <time>2022-04-10T10:15:07Z</time>
      </trkpt>
      <trkpt lat="45.92463" lon="6.52111">
        <ele>2199</ele>
        <time>2022-04-10T10:15:21Z</time>
      </trkpt>
      <trkpt lat="45.92465" lon="6.52118">
        <ele>2201</ele>
        <time>2022-04-10T10:15:37Z</time>
      </trkpt>
      <trkpt lat="45.92458" lon="6.5212">
        <ele>2203</ele>
        <time>2022-04-10T10:16:06Z</time>
      </trkpt>
      <trkpt lat="45.92456" lon="6.52132">
        <ele>2201</ele>
        <time>2022-04-10T10:33:03Z</time>
      </trkpt>
      <trkpt lat="45.92456" lon="6.5214">
        <ele>2203</ele>
        <time>2022-04-10T10:33:12Z</time>
      </trkpt>
      <trkpt lat="45.92452" lon="6.52157">
        <ele>2204</ele>
        <time>2022-04-10T10:33:29Z</time>
      </trkpt>
      <trkpt lat="45.92451" lon="6.52165">
        <ele>2204</ele>
        <time>2022-04-10T10:33:44Z</time>
      </trkpt>
      <trkpt lat="45.92448" lon="6.52176">
        <ele>2204</ele>
        <time>2022-04-10T10:34:36Z</time>
      </trkpt>
      <trkpt lat="45.92447" lon="6.52187">
        <ele>2205</ele>
        <time>2022-04-10T10:34:47Z</time>
      </trkpt>
      <trkpt lat="45.92444" lon="6.52198">
        <ele>2204</ele>
        <time>2022-04-10T10:34:56Z</time>
      </trkpt>
      <trkpt lat="45.92442" lon="6.52209">
        <ele>2204</ele>
        <time>2022-04-10T10:35:04Z</time>
      </trkpt>
      <trkpt lat="45.92443" lon="6.52229">
        <ele>2205</ele>
        <time>2022-04-10T10:35:19Z</time>
      </trkpt>
      <trkpt lat="45.92439" lon="6.5226">
        <ele>2206</ele>
        <time>2022-04-10T10:35:47Z</time>
      </trkpt>
      <trkpt lat="45.92437" lon="6.52271">
        <ele>2207</ele>
        <time>2022-04-10T10:35:54Z</time>
      </trkpt>
      <trkpt lat="45.92435" lon="6.52281">
        <ele>2207</ele>
        <time>2022-04-10T10:36:01Z</time>
      </trkpt>
      <trkpt lat="45.92433" lon="6.52288">
        <ele>2207</ele>
        <time>2022-04-10T10:36:09Z</time>
      </trkpt>
      <trkpt lat="45.92429" lon="6.52294">
        <ele>2207</ele>
        <time>2022-04-10T10:36:17Z</time>
      </trkpt>
      <trkpt lat="45.92428" lon="6.52302">
        <ele>2208</ele>
        <time>2022-04-10T10:36:26Z</time>
      </trkpt>
      <trkpt lat="45.92431" lon="6.52308">
        <ele>2210</ele>
        <time>2022-04-10T10:36:33Z</time>
      </trkpt>
      <trkpt lat="45.92433" lon="6.52319">
        <ele>2213</ele>
        <time>2022-04-10T10:36:43Z</time>
      </trkpt>
      <trkpt lat="45.92432" lon="6.52329">
        <ele>2215</ele>
        <time>2022-04-10T10:36:55Z</time>
      </trkpt>
      <trkpt lat="45.9243" lon="6.52341">
        <ele>2217</ele>
        <time>2022-04-10T10:37:09Z</time>
      </trkpt>
      <trkpt lat="45.92431" lon="6.5235">
        <ele>2217</ele>
        <time>2022-04-10T10:37:14Z</time>
      </trkpt>
      <trkpt lat="45.92431" lon="6.52359">
        <ele>2218</ele>
        <time>2022-04-10T10:37:22Z</time>
      </trkpt>
      <trkpt lat="45.92434" lon="6.52369">
        <ele>2218</ele>
        <time>2022-04-10T10:37:30Z</time>
      </trkpt>
      <trkpt lat="45.92431" lon="6.52379">
        <ele>2220</ele>
        <time>2022-04-10T10:37:40Z</time>
      </trkpt>
      <trkpt lat="45.9243" lon="6.52406">
        <ele>2223</ele>
        <time>2022-04-10T10:38:09Z</time>
      </trkpt>
      <trkpt lat="45.9243" lon="6.52414">
        <ele>2225</ele>
        <time>2022-04-10T10:38:17Z</time>
      </trkpt>
      <trkpt lat="45.92425" lon="6.52428">
        <ele>2226</ele>
        <time>2022-04-10T10:38:35Z</time>
      </trkpt>
      <trkpt lat="45.92422" lon="6.52435">
        <ele>2226</ele>
        <time>2022-04-10T10:38:42Z</time>
      </trkpt>
      <trkpt lat="45.92421" lon="6.52451">
        <ele>2228</ele>
        <time>2022-04-10T10:39:04Z</time>
      </trkpt>
      <trkpt lat="45.92422" lon="6.52459">
        <ele>2229</ele>
        <time>2022-04-10T10:39:11Z</time>
      </trkpt>
      <trkpt lat="45.9243" lon="6.52474">
        <ele>2232</ele>
        <time>2022-04-10T10:39:29Z</time>
      </trkpt>
      <trkpt lat="45.92428" lon="6.52482">
        <ele>2233</ele>
        <time>2022-04-10T10:39:49Z</time>
      </trkpt>
      <trkpt lat="45.92417" lon="6.52491">
        <ele>2235</ele>
        <time>2022-04-10T10:40:01Z</time>
      </trkpt>
      <trkpt lat="45.92409" lon="6.52502">
        <ele>2237</ele>
        <time>2022-04-10T10:40:23Z</time>
      </trkpt>
      <trkpt lat="45.92404" lon="6.52507">
        <ele>2240</ele>
        <time>2022-04-10T10:40:37Z</time>
      </trkpt>
      <trkpt lat="45.924" lon="6.52515">
        <ele>2241</ele>
        <time>2022-04-10T10:40:49Z</time>
      </trkpt>
      <trkpt lat="45.92399" lon="6.52524">
        <ele>2242</ele>
        <time>2022-04-10T10:40:58Z</time>
      </trkpt>
      <trkpt lat="45.92406" lon="6.5253">
        <ele>2244</ele>
        <time>2022-04-10T10:41:10Z</time>
      </trkpt>
      <trkpt lat="45.92411" lon="6.52535">
        <ele>2250</ele>
        <time>2022-04-10T10:41:25Z</time>
      </trkpt>
      <trkpt lat="45.92405" lon="6.5255">
        <ele>2253</ele>
        <time>2022-04-10T10:42:00Z</time>
      </trkpt>
      <trkpt lat="45.92406" lon="6.52558">
        <ele>2254</ele>
        <time>2022-04-10T10:42:09Z</time>
      </trkpt>
      <trkpt lat="45.92401" lon="6.52563">
        <ele>2255</ele>
        <time>2022-04-10T10:42:23Z</time>
      </trkpt>
      <trkpt lat="45.92399" lon="6.52571">
        <ele>2258</ele>
        <time>2022-04-10T10:42:32Z</time>
      </trkpt>
      <trkpt lat="45.92402" lon="6.52578">
        <ele>2258</ele>
        <time>2022-04-10T10:42:42Z</time>
      </trkpt>
      <trkpt lat="45.92404" lon="6.52586">
        <ele>2259</ele>
        <time>2022-04-10T10:42:57Z</time>
      </trkpt>
      <trkpt lat="45.92403" lon="6.52595">
        <ele>2260</ele>
        <time>2022-04-10T10:43:05Z</time>
      </trkpt>
      <trkpt lat="45.92406" lon="6.52602">
        <ele>2262</ele>
        <time>2022-04-10T10:43:19Z</time>
      </trkpt>
      <trkpt lat="45.92412" lon="6.52609">
        <ele>2263</ele>
        <time>2022-04-10T10:43:39Z</time>
      </trkpt>
      <trkpt lat="45.92413" lon="6.5262">
        <ele>2269</ele>
        <time>2022-04-10T10:44:15Z</time>
      </trkpt>
      <trkpt lat="45.92411" lon="6.52629">
        <ele>2272</ele>
        <time>2022-04-10T10:44:30Z</time>
      </trkpt>
      <trkpt lat="45.92404" lon="6.52636">
        <ele>2274</ele>
        <time>2022-04-10T10:44:46Z</time>
      </trkpt>
      <trkpt lat="45.92403" lon="6.52639">
        <ele>2276</ele>
        <time>2022-04-10T10:45:03Z</time>
      </trkpt>
      <trkpt lat="45.92409" lon="6.52641">
        <ele>2276</ele>
        <time>2022-04-10T10:45:11Z</time>
      </trkpt>
      <trkpt lat="45.92414" lon="6.52643">
        <ele>2279</ele>
        <time>2022-04-10T10:45:20Z</time>
      </trkpt>
      <trkpt lat="45.92417" lon="6.52648">
        <ele>2284</ele>
        <time>2022-04-10T10:46:03Z</time>
      </trkpt>
      <trkpt lat="45.92415" lon="6.52655">
        <ele>2286</ele>
        <time>2022-04-10T10:46:20Z</time>
      </trkpt>
      <trkpt lat="45.92409" lon="6.52662">
        <ele>2287</ele>
        <time>2022-04-10T10:46:30Z</time>
      </trkpt>
      <trkpt lat="45.92409" lon="6.52671">
        <ele>2292</ele>
        <time>2022-04-10T10:47:27Z</time>
      </trkpt>
      <trkpt lat="45.92414" lon="6.52675">
        <ele>2296</ele>
        <time>2022-04-10T10:47:43Z</time>
      </trkpt>
      <trkpt lat="45.92411" lon="6.52681">
        <ele>2297</ele>
        <time>2022-04-10T10:48:15Z</time>
      </trkpt>
      <trkpt lat="45.92411" lon="6.52684">
        <ele>2298</ele>
        <time>2022-04-10T10:48:46Z</time>
      </trkpt>
      <trkpt lat="45.92417" lon="6.52683">
        <ele>2298</ele>
        <time>2022-04-10T10:48:57Z</time>
      </trkpt>
      <trkpt lat="45.92417" lon="6.52686">
        <ele>2300</ele>
        <time>2022-04-10T10:49:29Z</time>
      </trkpt>
      <trkpt lat="45.92418" lon="6.52691">
        <ele>2308</ele>
        <time>2022-04-10T10:50:02Z</time>
      </trkpt>
      <trkpt lat="45.92421" lon="6.52698">
        <ele>2309</ele>
        <time>2022-04-10T10:50:28Z</time>
      </trkpt>
      <trkpt lat="45.92415" lon="6.52701">
        <ele>2310</ele>
        <time>2022-04-10T10:50:42Z</time>
      </trkpt>
      <trkpt lat="45.92411" lon="6.52708">
        <ele>2314</ele>
        <time>2022-04-10T10:51:12Z</time>
      </trkpt>
      <trkpt lat="45.92417" lon="6.5271">
        <ele>2315</ele>
        <time>2022-04-10T10:51:29Z</time>
      </trkpt>
      <trkpt lat="45.92418" lon="6.52716">
        <ele>2316</ele>
        <time>2022-04-10T10:51:55Z</time>
      </trkpt>
      <trkpt lat="45.92413" lon="6.5272">
        <ele>2318</ele>
        <time>2022-04-10T10:52:48Z</time>
      </trkpt>
      <trkpt lat="45.92408" lon="6.52719">
        <ele>2321</ele>
        <time>2022-04-10T10:53:08Z</time>
      </trkpt>
      <trkpt lat="45.92408" lon="6.52727">
        <ele>2322</ele>
        <time>2022-04-10T10:53:23Z</time>
      </trkpt>
      <trkpt lat="45.92401" lon="6.52729">
        <ele>2322</ele>
        <time>2022-04-10T10:53:37Z</time>
      </trkpt>
      <trkpt lat="45.92397" lon="6.52735">
        <ele>2323</ele>
        <time>2022-04-10T10:53:48Z</time>
      </trkpt>
      <trkpt lat="45.92392" lon="6.5273">
        <ele>2323</ele>
        <time>2022-04-10T10:54:11Z</time>
      </trkpt>
      <trkpt lat="45.92387" lon="6.52734">
        <ele>2325</ele>
        <time>2022-04-10T10:54:27Z</time>
      </trkpt>
      <trkpt lat="45.92391" lon="6.52738">
        <ele>2327</ele>
        <time>2022-04-10T10:54:46Z</time>
      </trkpt>
      <trkpt lat="45.92402" lon="6.52749">
        <ele>2330</ele>
        <time>2022-04-10T10:55:12Z</time>
      </trkpt>
      <trkpt lat="45.924" lon="6.52756">
        <ele>2332</ele>
        <time>2022-04-10T10:55:45Z</time>
      </trkpt>
      <trkpt lat="45.924" lon="6.52764">
        <ele>2336</ele>
        <time>2022-04-10T10:56:05Z</time>
      </trkpt>
      <trkpt lat="45.92411" lon="6.52778">
        <ele>2339</ele>
        <time>2022-04-10T10:56:33Z</time>
      </trkpt>
      <trkpt lat="45.92414" lon="6.52796">
        <ele>2341</ele>
        <time>2022-04-10T10:56:55Z</time>
      </trkpt>
      <trkpt lat="45.92415" lon="6.52807">
        <ele>2342</ele>
        <time>2022-04-10T10:57:12Z</time>
      </trkpt>
      <trkpt lat="45.92417" lon="6.52814">
        <ele>2343</ele>
        <time>2022-04-10T10:57:25Z</time>
      </trkpt>
      <trkpt lat="45.92422" lon="6.52818">
        <ele>2343</ele>
        <time>2022-04-10T10:57:38Z</time>
      </trkpt>
      <trkpt lat="45.92427" lon="6.52823">
        <ele>2344</ele>
        <time>2022-04-10T10:57:56Z</time>
      </trkpt>
      <trkpt lat="45.92423" lon="6.5283">
        <ele>2345</ele>
        <time>2022-04-10T10:58:12Z</time>
      </trkpt>
      <trkpt lat="45.92428" lon="6.52835">
        <ele>2346</ele>
        <time>2022-04-10T10:58:34Z</time>
      </trkpt>
      <trkpt lat="45.9243" lon="6.52842">
        <ele>2349</ele>
        <time>2022-04-10T10:58:55Z</time>
      </trkpt>
      <trkpt lat="45.92436" lon="6.52845">
        <ele>2350</ele>
        <time>2022-04-10T10:59:14Z</time>
      </trkpt>
      <trkpt lat="45.92433" lon="6.52852">
        <ele>2354</ele>
        <time>2022-04-10T10:59:43Z</time>
      </trkpt>
      <trkpt lat="45.92439" lon="6.52854">
        <ele>2356</ele>
        <time>2022-04-10T11:00:37Z</time>
      </trkpt>
      <trkpt lat="45.92437" lon="6.52862">
        <ele>2361</ele>
        <time>2022-04-10T11:01:26Z</time>
      </trkpt>
      <trkpt lat="45.92437" lon="6.5287">
        <ele>2362</ele>
        <time>2022-04-10T11:01:44Z</time>
      </trkpt>
      <trkpt lat="45.92429" lon="6.52877">
        <ele>2363</ele>
        <time>2022-04-10T11:02:10Z</time>
      </trkpt>
      <trkpt lat="45.92435" lon="6.52879">
        <ele>2365</ele>
        <time>2022-04-10T11:02:39Z</time>
      </trkpt>
      <trkpt lat="45.92435" lon="6.52887">
        <ele>2368</ele>
        <time>2022-04-10T11:03:50Z</time>
      </trkpt>
      <trkpt lat="45.9244" lon="6.52889">
        <ele>2372</ele>
        <time>2022-04-10T11:04:01Z</time>
      </trkpt>
      <trkpt lat="45.92445" lon="6.52893">
        <ele>2372</ele>
        <time>2022-04-10T11:04:10Z</time>
      </trkpt>
      <trkpt lat="45.92441" lon="6.52899">
        <ele>2375</ele>
        <time>2022-04-10T11:04:30Z</time>
      </trkpt>
      <trkpt lat="45.92439" lon="6.52907">
        <ele>2377</ele>
        <time>2022-04-10T11:04:43Z</time>
      </trkpt>
      <trkpt lat="45.92436" lon="6.52914">
        <ele>2377</ele>
        <time>2022-04-10T11:04:54Z</time>
      </trkpt>
      <trkpt lat="45.92436" lon="6.52922">
        <ele>2379</ele>
        <time>2022-04-10T11:05:09Z</time>
      </trkpt>
      <trkpt lat="45.92439" lon="6.5293">
        <ele>2381</ele>
        <time>2022-04-10T11:05:26Z</time>
      </trkpt>
      <trkpt lat="45.9244" lon="6.52937">
        <ele>2385</ele>
        <time>2022-04-10T11:05:41Z</time>
      </trkpt>
      <trkpt lat="45.92445" lon="6.52944">
        <ele>2387</ele>
        <time>2022-04-10T11:05:55Z</time>
      </trkpt>
      <trkpt lat="45.9245" lon="6.52948">
        <ele>2389</ele>
        <time>2022-04-10T11:06:10Z</time>
      </trkpt>
      <trkpt lat="45.92453" lon="6.52958">
        <ele>2390</ele>
        <time>2022-04-10T11:06:45Z</time>
      </trkpt>
      <trkpt lat="45.92456" lon="6.52965">
        <ele>2394</ele>
        <time>2022-04-10T11:07:00Z</time>
      </trkpt>
      <trkpt lat="45.92456" lon="6.52973">
        <ele>2396</ele>
        <time>2022-04-10T11:07:12Z</time>
      </trkpt>
      <trkpt lat="45.92455" lon="6.52982">
        <ele>2399</ele>
        <time>2022-04-10T11:07:33Z</time>
      </trkpt>
      <trkpt lat="45.92451" lon="6.52986">
        <ele>2400</ele>
        <time>2022-04-10T11:07:56Z</time>
      </trkpt>
      <trkpt lat="45.92456" lon="6.52994">
        <ele>2404</ele>
        <time>2022-04-10T11:08:25Z</time>
      </trkpt>
      <trkpt lat="45.92461" lon="6.52993">
        <ele>2407</ele>
        <time>2022-04-10T11:08:49Z</time>
      </trkpt>
      <trkpt lat="45.92463" lon="6.53001">
        <ele>2409</ele>
        <time>2022-04-10T11:09:14Z</time>
      </trkpt>
      <trkpt lat="45.92459" lon="6.53007">
        <ele>2410</ele>
        <time>2022-04-10T11:09:28Z</time>
      </trkpt>
      <trkpt lat="45.92455" lon="6.53012">
        <ele>2410</ele>
        <time>2022-04-10T11:09:38Z</time>
      </trkpt>
      <trkpt lat="45.9245" lon="6.53016">
        <ele>2411</ele>
        <time>2022-04-10T11:09:48Z</time>
      </trkpt>
      <trkpt lat="45.92455" lon="6.53021">
        <ele>2414</ele>
        <time>2022-04-10T11:10:18Z</time>
      </trkpt>
      <trkpt lat="45.92457" lon="6.53028">
        <ele>2419</ele>
        <time>2022-04-10T11:10:56Z</time>
      </trkpt>
      <trkpt lat="45.92457" lon="6.53036">
        <ele>2420</ele>
        <time>2022-04-10T11:11:21Z</time>
      </trkpt>
      <trkpt lat="45.92448" lon="6.53046">
        <ele>2425</ele>
        <time>2022-04-10T11:11:37Z</time>
      </trkpt>
      <trkpt lat="45.92443" lon="6.5305">
        <ele>2427</ele>
        <time>2022-04-10T11:11:50Z</time>
      </trkpt>
      <trkpt lat="45.9245" lon="6.53054">
        <ele>2427</ele>
        <time>2022-04-10T11:12:04Z</time>
      </trkpt>
      <trkpt lat="45.92463" lon="6.53058">
        <ele>2432</ele>
        <time>2022-04-10T11:12:28Z</time>
      </trkpt>
      <trkpt lat="45.92469" lon="6.53057">
        <ele>2435</ele>
        <time>2022-04-10T11:12:36Z</time>
      </trkpt>
      <trkpt lat="45.92475" lon="6.53059">
        <ele>2436</ele>
        <time>2022-04-10T11:12:46Z</time>
      </trkpt>
      <trkpt lat="45.92482" lon="6.53056">
        <ele>2440</ele>
        <time>2022-04-10T11:13:04Z</time>
      </trkpt>
      <trkpt lat="45.92485" lon="6.5305">
        <ele>2441</ele>
        <time>2022-04-10T11:13:32Z</time>
      </trkpt>
      <trkpt lat="45.9249" lon="6.53044">
        <ele>2442</ele>
        <time>2022-04-10T11:13:48Z</time>
      </trkpt>
      <trkpt lat="45.92495" lon="6.5304">
        <ele>2442</ele>
        <time>2022-04-10T11:14:00Z</time>
      </trkpt>
      <trkpt lat="45.92498" lon="6.53036">
        <ele>2444</ele>
        <time>2022-04-10T11:14:09Z</time>
      </trkpt>
      <trkpt lat="45.92498" lon="6.53044">
        <ele>2446</ele>
        <time>2022-04-10T11:14:42Z</time>
      </trkpt>
      <trkpt lat="45.92498" lon="6.5306">
        <ele>2447</ele>
        <time>2022-04-10T11:15:05Z</time>
      </trkpt>
      <trkpt lat="45.92494" lon="6.53067">
        <ele>2448</ele>
        <time>2022-04-10T11:15:16Z</time>
      </trkpt>
      <trkpt lat="45.92484" lon="6.53078">
        <ele>2448</ele>
        <time>2022-04-10T11:15:38Z</time>
      </trkpt>
      <trkpt lat="45.92481" lon="6.53084">
        <ele>2449</ele>
        <time>2022-04-10T11:15:48Z</time>
      </trkpt>
      <trkpt lat="45.92477" lon="6.5309">
        <ele>2450</ele>
        <time>2022-04-10T11:16:02Z</time>
      </trkpt>
      <trkpt lat="45.92474" lon="6.53097">
        <ele>2451</ele>
        <time>2022-04-10T11:16:12Z</time>
      </trkpt>
      <trkpt lat="45.92469" lon="6.53101">
        <ele>2453</ele>
        <time>2022-04-10T11:16:43Z</time>
      </trkpt>
      <trkpt lat="45.92466" lon="6.53103">
        <ele>2455</ele>
        <time>2022-04-10T11:16:54Z</time>
      </trkpt>
      <trkpt lat="45.92467" lon="6.531">
        <ele>2469</ele>
        <time>2022-04-10T12:00:49Z</time>
      </trkpt>
      <trkpt lat="45.92475" lon="6.5309">
        <ele>2469</ele>
        <time>2022-04-10T12:03:25Z</time>
      </trkpt>
      <trkpt lat="45.92481" lon="6.53082">
        <ele>2469</ele>
        <time>2022-04-10T12:03:32Z</time>
      </trkpt>
      <trkpt lat="45.9248" lon="6.53066">
        <ele>2468</ele>
        <time>2022-04-10T12:04:49Z</time>
      </trkpt>
      <trkpt lat="45.92475" lon="6.53054">
        <ele>2467</ele>
        <time>2022-04-10T12:04:52Z</time>
      </trkpt>
      <trkpt lat="45.92459" lon="6.53023">
        <ele>2462</ele>
        <time>2022-04-10T12:05:01Z</time>
      </trkpt>
      <trkpt lat="45.92451" lon="6.5302">
        <ele>2459</ele>
        <time>2022-04-10T12:05:35Z</time>
      </trkpt>
      <trkpt lat="45.92442" lon="6.53019">
        <ele>2457</ele>
        <time>2022-04-10T12:05:38Z</time>
      </trkpt>
      <trkpt lat="45.92441" lon="6.53">
        <ele>2453</ele>
        <time>2022-04-10T12:05:43Z</time>
      </trkpt>
      <trkpt lat="45.92441" lon="6.52981">
        <ele>2445</ele>
        <time>2022-04-10T12:05:47Z</time>
      </trkpt>
      <trkpt lat="45.92437" lon="6.52967">
        <ele>2440</ele>
        <time>2022-04-10T12:05:51Z</time>
      </trkpt>
      <trkpt lat="45.92431" lon="6.52968">
        <ele>2432</ele>
        <time>2022-04-10T12:06:16Z</time>
      </trkpt>
      <trkpt lat="45.92422" lon="6.52951">
        <ele>2431</ele>
        <time>2022-04-10T12:06:39Z</time>
      </trkpt>
      <trkpt lat="45.92415" lon="6.52943">
        <ele>2426</ele>
        <time>2022-04-10T12:06:41Z</time>
      </trkpt>
      <trkpt lat="45.92407" lon="6.52932">
        <ele>2423</ele>
        <time>2022-04-10T12:06:44Z</time>
      </trkpt>
      <trkpt lat="45.92402" lon="6.52917">
        <ele>2419</ele>
        <time>2022-04-10T12:06:47Z</time>
      </trkpt>
      <trkpt lat="45.92391" lon="6.52903">
        <ele>2417</ele>
        <time>2022-04-10T12:06:49Z</time>
      </trkpt>
      <trkpt lat="45.92381" lon="6.52888">
        <ele>2413</ele>
        <time>2022-04-10T12:06:51Z</time>
      </trkpt>
      <trkpt lat="45.92369" lon="6.5287">
        <ele>2406</ele>
        <time>2022-04-10T12:06:54Z</time>
      </trkpt>
      <trkpt lat="45.9236" lon="6.52859">
        <ele>2403</ele>
        <time>2022-04-10T12:06:58Z</time>
      </trkpt>
      <trkpt lat="45.9235" lon="6.52848">
        <ele>2399</ele>
        <time>2022-04-10T12:07:01Z</time>
      </trkpt>
      <trkpt lat="45.92344" lon="6.5284">
        <ele>2397</ele>
        <time>2022-04-10T12:07:03Z</time>
      </trkpt>
      <trkpt lat="45.92337" lon="6.52828">
        <ele>2393</ele>
        <time>2022-04-10T12:07:06Z</time>
      </trkpt>
      <trkpt lat="45.9233" lon="6.52817">
        <ele>2391</ele>
        <time>2022-04-10T12:07:08Z</time>
      </trkpt>
      <trkpt lat="45.92322" lon="6.52806">
        <ele>2386</ele>
        <time>2022-04-10T12:07:10Z</time>
      </trkpt>
      <trkpt lat="45.92309" lon="6.52787">
        <ele>2381</ele>
        <time>2022-04-10T12:07:13Z</time>
      </trkpt>
      <trkpt lat="45.92303" lon="6.52783">
        <ele>2379</ele>
        <time>2022-04-10T12:07:22Z</time>
      </trkpt>
      <trkpt lat="45.92309" lon="6.52772">
        <ele>2378</ele>
        <time>2022-04-10T12:07:46Z</time>
      </trkpt>
      <trkpt lat="45.92318" lon="6.52757">
        <ele>2376</ele>
        <time>2022-04-10T12:07:49Z</time>
      </trkpt>
      <trkpt lat="45.92311" lon="6.52739">
        <ele>2372</ele>
        <time>2022-04-10T12:08:03Z</time>
      </trkpt>
      <trkpt lat="45.92307" lon="6.5273">
        <ele>2367</ele>
        <time>2022-04-10T12:08:05Z</time>
      </trkpt>
      <trkpt lat="45.92301" lon="6.52709">
        <ele>2364</ele>
        <time>2022-04-10T12:08:09Z</time>
      </trkpt>
      <trkpt lat="45.92296" lon="6.52699">
        <ele>2361</ele>
        <time>2022-04-10T12:08:11Z</time>
      </trkpt>
      <trkpt lat="45.92293" lon="6.5268">
        <ele>2359</ele>
        <time>2022-04-10T12:08:15Z</time>
      </trkpt>
      <trkpt lat="45.92293" lon="6.52665">
        <ele>2356</ele>
        <time>2022-04-10T12:08:18Z</time>
      </trkpt>
      <trkpt lat="45.92295" lon="6.52649">
        <ele>2353</ele>
        <time>2022-04-10T12:08:21Z</time>
      </trkpt>
      <trkpt lat="45.92296" lon="6.52634">
        <ele>2348</ele>
        <time>2022-04-10T12:08:23Z</time>
      </trkpt>
      <trkpt lat="45.92295" lon="6.5262">
        <ele>2345</ele>
        <time>2022-04-10T12:08:25Z</time>
      </trkpt>
      <trkpt lat="45.92294" lon="6.52603">
        <ele>2340</ele>
        <time>2022-04-10T12:08:27Z</time>
      </trkpt>
      <trkpt lat="45.92288" lon="6.52573">
        <ele>2336</ele>
        <time>2022-04-10T12:08:30Z</time>
      </trkpt>
      <trkpt lat="45.92291" lon="6.52556">
        <ele>2334</ele>
        <time>2022-04-10T12:08:32Z</time>
      </trkpt>
      <trkpt lat="45.92295" lon="6.52542">
        <ele>2330</ele>
        <time>2022-04-10T12:08:34Z</time>
      </trkpt>
      <trkpt lat="45.92301" lon="6.52526">
        <ele>2326</ele>
        <time>2022-04-10T12:08:36Z</time>
      </trkpt>
      <trkpt lat="45.92307" lon="6.52511">
        <ele>2322</ele>
        <time>2022-04-10T12:08:38Z</time>
      </trkpt>
      <trkpt lat="45.92313" lon="6.52497">
        <ele>2319</ele>
        <time>2022-04-10T12:08:40Z</time>
      </trkpt>
      <trkpt lat="45.92318" lon="6.52481">
        <ele>2316</ele>
        <time>2022-04-10T12:08:43Z</time>
      </trkpt>
      <trkpt lat="45.9232" lon="6.52463">
        <ele>2312</ele>
        <time>2022-04-10T12:08:49Z</time>
      </trkpt>
      <trkpt lat="45.92321" lon="6.52446">
        <ele>2309</ele>
        <time>2022-04-10T12:09:03Z</time>
      </trkpt>
      <trkpt lat="45.92327" lon="6.52431">
        <ele>2309</ele>
        <time>2022-04-10T12:09:18Z</time>
      </trkpt>
      <trkpt lat="45.92322" lon="6.52409">
        <ele>2307</ele>
        <time>2022-04-10T12:11:09Z</time>
      </trkpt>
      <trkpt lat="45.92318" lon="6.52356">
        <ele>2302</ele>
        <time>2022-04-10T12:11:24Z</time>
      </trkpt>
      <trkpt lat="45.92324" lon="6.52337">
        <ele>2301</ele>
        <time>2022-04-10T12:11:28Z</time>
      </trkpt>
      <trkpt lat="45.92338" lon="6.52329">
        <ele>2298</ele>
        <time>2022-04-10T12:11:34Z</time>
      </trkpt>
      <trkpt lat="45.9235" lon="6.52331">
        <ele>2289</ele>
        <time>2022-04-10T12:11:37Z</time>
      </trkpt>
      <trkpt lat="45.92354" lon="6.52318">
        <ele>2283</ele>
        <time>2022-04-10T12:11:59Z</time>
      </trkpt>
      <trkpt lat="45.92353" lon="6.52277">
        <ele>2282</ele>
        <time>2022-04-10T12:12:31Z</time>
      </trkpt>
      <trkpt lat="45.92352" lon="6.5226">
        <ele>2281</ele>
        <time>2022-04-10T12:12:35Z</time>
      </trkpt>
      <trkpt lat="45.92351" lon="6.52244">
        <ele>2278</ele>
        <time>2022-04-10T12:12:39Z</time>
      </trkpt>
      <trkpt lat="45.92378" lon="6.52214">
        <ele>2256</ele>
        <time>2022-04-10T12:12:48Z</time>
      </trkpt>
      <trkpt lat="45.92388" lon="6.52199">
        <ele>2247</ele>
        <time>2022-04-10T12:12:50Z</time>
      </trkpt>
      <trkpt lat="45.92399" lon="6.5216">
        <ele>2231</ele>
        <time>2022-04-10T12:12:54Z</time>
      </trkpt>
      <trkpt lat="45.92404" lon="6.52142">
        <ele>2226</ele>
        <time>2022-04-10T12:12:59Z</time>
      </trkpt>
      <trkpt lat="45.92416" lon="6.52129">
        <ele>2222</ele>
        <time>2022-04-10T12:13:10Z</time>
      </trkpt>
      <trkpt lat="45.92427" lon="6.52122">
        <ele>2219</ele>
        <time>2022-04-10T12:13:14Z</time>
      </trkpt>
      <trkpt lat="45.92436" lon="6.52114">
        <ele>2216</ele>
        <time>2022-04-10T12:13:16Z</time>
      </trkpt>
      <trkpt lat="45.92448" lon="6.52102">
        <ele>2212</ele>
        <time>2022-04-10T12:13:18Z</time>
      </trkpt>
      <trkpt lat="45.92458" lon="6.52087">
        <ele>2209</ele>
        <time>2022-04-10T12:13:21Z</time>
      </trkpt>
      <trkpt lat="45.92466" lon="6.52066">
        <ele>2207</ele>
        <time>2022-04-10T12:14:01Z</time>
      </trkpt>
      <trkpt lat="45.92471" lon="6.52051">
        <ele>2205</ele>
        <time>2022-04-10T12:14:04Z</time>
      </trkpt>
      <trkpt lat="45.92493" lon="6.52031">
        <ele>2202</ele>
        <time>2022-04-10T12:14:10Z</time>
      </trkpt>
      <trkpt lat="45.92494" lon="6.52012">
        <ele>2201</ele>
        <time>2022-04-10T12:14:12Z</time>
      </trkpt>
      <trkpt lat="45.92493" lon="6.51995">
        <ele>2200</ele>
        <time>2022-04-10T12:14:16Z</time>
      </trkpt>
      <trkpt lat="45.92505" lon="6.51995">
        <ele>2199</ele>
        <time>2022-04-10T12:14:23Z</time>
      </trkpt>
      <trkpt lat="45.92519" lon="6.51995">
        <ele>2193</ele>
        <time>2022-04-10T12:14:26Z</time>
      </trkpt>
      <trkpt lat="45.92528" lon="6.5199">
        <ele>2190</ele>
        <time>2022-04-10T12:14:28Z</time>
      </trkpt>
      <trkpt lat="45.92534" lon="6.51972">
        <ele>2184</ele>
        <time>2022-04-10T12:14:31Z</time>
      </trkpt>
      <trkpt lat="45.92538" lon="6.51961">
        <ele>2181</ele>
        <time>2022-04-10T12:14:33Z</time>
      </trkpt>
      <trkpt lat="45.92545" lon="6.51945">
        <ele>2177</ele>
        <time>2022-04-10T12:14:37Z</time>
      </trkpt>
      <trkpt lat="45.92553" lon="6.51928">
        <ele>2168</ele>
        <time>2022-04-10T12:18:37Z</time>
      </trkpt>
      <trkpt lat="45.92541" lon="6.51906">
        <ele>2168</ele>
        <time>2022-04-10T12:18:41Z</time>
      </trkpt>
      <trkpt lat="45.9254" lon="6.51888">
        <ele>2168</ele>
        <time>2022-04-10T12:18:45Z</time>
      </trkpt>
      <trkpt lat="45.92545" lon="6.51877">
        <ele>2166</ele>
        <time>2022-04-10T12:18:47Z</time>
      </trkpt>
      <trkpt lat="45.9255" lon="6.51868">
        <ele>2163</ele>
        <time>2022-04-10T12:18:50Z</time>
      </trkpt>
      <trkpt lat="45.92569" lon="6.51845">
        <ele>2148</ele>
        <time>2022-04-10T12:18:55Z</time>
      </trkpt>
      <trkpt lat="45.92576" lon="6.51835">
        <ele>2143</ele>
        <time>2022-04-10T12:18:57Z</time>
      </trkpt>
      <trkpt lat="45.92581" lon="6.51822">
        <ele>2140</ele>
        <time>2022-04-10T12:19:00Z</time>
      </trkpt>
      <trkpt lat="45.92589" lon="6.51806">
        <ele>2134</ele>
        <time>2022-04-10T12:19:04Z</time>
      </trkpt>
      <trkpt lat="45.92601" lon="6.51798">
        <ele>2128</ele>
        <time>2022-04-10T12:19:08Z</time>
      </trkpt>
      <trkpt lat="45.92606" lon="6.51812">
        <ele>2122</ele>
        <time>2022-04-10T12:19:40Z</time>
      </trkpt>
      <trkpt lat="45.92617" lon="6.5182">
        <ele>2116</ele>
        <time>2022-04-10T12:19:44Z</time>
      </trkpt>
      <trkpt lat="45.9263" lon="6.51806">
        <ele>2107</ele>
        <time>2022-04-10T12:19:53Z</time>
      </trkpt>
      <trkpt lat="45.92643" lon="6.51811">
        <ele>2103</ele>
        <time>2022-04-10T12:19:55Z</time>
      </trkpt>
      <trkpt lat="45.92655" lon="6.51814">
        <ele>2096</ele>
        <time>2022-04-10T12:19:58Z</time>
      </trkpt>
      <trkpt lat="45.92667" lon="6.51818">
        <ele>2093</ele>
        <time>2022-04-10T12:20:00Z</time>
      </trkpt>
      <trkpt lat="45.92678" lon="6.5182">
        <ele>2090</ele>
        <time>2022-04-10T12:20:02Z</time>
      </trkpt>
      <trkpt lat="45.92691" lon="6.51823">
        <ele>2087</ele>
        <time>2022-04-10T12:20:05Z</time>
      </trkpt>
      <trkpt lat="45.92709" lon="6.51835">
        <ele>2081</ele>
        <time>2022-04-10T12:20:35Z</time>
      </trkpt>
      <trkpt lat="45.92718" lon="6.51843">
        <ele>2078</ele>
        <time>2022-04-10T12:20:38Z</time>
      </trkpt>
      <trkpt lat="45.92725" lon="6.51849">
        <ele>2076</ele>
        <time>2022-04-10T12:20:40Z</time>
      </trkpt>
      <trkpt lat="45.92732" lon="6.51856">
        <ele>2071</ele>
        <time>2022-04-10T12:20:42Z</time>
      </trkpt>
      <trkpt lat="45.92739" lon="6.5186">
        <ele>2069</ele>
        <time>2022-04-10T12:20:45Z</time>
      </trkpt>
      <trkpt lat="45.9275" lon="6.51843">
        <ele>2068</ele>
        <time>2022-04-10T12:20:51Z</time>
      </trkpt>
      <trkpt lat="45.92761" lon="6.51836">
        <ele>2064</ele>
        <time>2022-04-10T12:20:56Z</time>
      </trkpt>
      <trkpt lat="45.92766" lon="6.51812">
        <ele>2063</ele>
        <time>2022-04-10T12:21:19Z</time>
      </trkpt>
      <trkpt lat="45.92764" lon="6.51797">
        <ele>2056</ele>
        <time>2022-04-10T12:21:22Z</time>
      </trkpt>
      <trkpt lat="45.92763" lon="6.51776">
        <ele>2054</ele>
        <time>2022-04-10T12:21:25Z</time>
      </trkpt>
      <trkpt lat="45.92773" lon="6.51719">
        <ele>2031</ele>
        <time>2022-04-10T12:21:35Z</time>
      </trkpt>
      <trkpt lat="45.92783" lon="6.51716">
        <ele>2024</ele>
        <time>2022-04-10T12:21:37Z</time>
      </trkpt>
      <trkpt lat="45.92794" lon="6.51697">
        <ele>2019</ele>
        <time>2022-04-10T12:21:40Z</time>
      </trkpt>
      <trkpt lat="45.92803" lon="6.51684">
        <ele>2011</ele>
        <time>2022-04-10T12:21:42Z</time>
      </trkpt>
      <trkpt lat="45.92814" lon="6.5168">
        <ele>2008</ele>
        <time>2022-04-10T12:21:44Z</time>
      </trkpt>
      <trkpt lat="45.92823" lon="6.51673">
        <ele>2005</ele>
        <time>2022-04-10T12:22:55Z</time>
      </trkpt>
      <trkpt lat="45.92833" lon="6.51675">
        <ele>1998</ele>
        <time>2022-04-10T12:22:58Z</time>
      </trkpt>
      <trkpt lat="45.92843" lon="6.51671">
        <ele>1995</ele>
        <time>2022-04-10T12:23:02Z</time>
      </trkpt>
      <trkpt lat="45.92847" lon="6.51681">
        <ele>1993</ele>
        <time>2022-04-10T12:23:04Z</time>
      </trkpt>
      <trkpt lat="45.92857" lon="6.51685">
        <ele>1987</ele>
        <time>2022-04-10T12:23:07Z</time>
      </trkpt>
      <trkpt lat="45.92868" lon="6.5168">
        <ele>1984</ele>
        <time>2022-04-10T12:23:10Z</time>
      </trkpt>
      <trkpt lat="45.92874" lon="6.51671">
        <ele>1980</ele>
        <time>2022-04-10T12:23:13Z</time>
      </trkpt>
      <trkpt lat="45.92875" lon="6.51658">
        <ele>1978</ele>
        <time>2022-04-10T12:23:15Z</time>
      </trkpt>
      <trkpt lat="45.92876" lon="6.51641">
        <ele>1973</ele>
        <time>2022-04-10T12:23:17Z</time>
      </trkpt>
      <trkpt lat="45.92883" lon="6.51626">
        <ele>1968</ele>
        <time>2022-04-10T12:23:22Z</time>
      </trkpt>
      <trkpt lat="45.92882" lon="6.51608">
        <ele>1960</ele>
        <time>2022-04-10T12:23:25Z</time>
      </trkpt>
      <trkpt lat="45.92891" lon="6.5159">
        <ele>1951</ele>
        <time>2022-04-10T12:23:28Z</time>
      </trkpt>
      <trkpt lat="45.92897" lon="6.51577">
        <ele>1947</ele>
        <time>2022-04-10T12:23:30Z</time>
      </trkpt>
      <trkpt lat="45.92898" lon="6.51563">
        <ele>1941</ele>
        <time>2022-04-10T12:23:32Z</time>
      </trkpt>
      <trkpt lat="45.92897" lon="6.51544">
        <ele>1938</ele>
        <time>2022-04-10T12:25:06Z</time>
      </trkpt>
      <trkpt lat="45.92903" lon="6.5152">
        <ele>1935</ele>
        <time>2022-04-10T12:25:10Z</time>
      </trkpt>
      <trkpt lat="45.92904" lon="6.51497">
        <ele>1933</ele>
        <time>2022-04-10T12:25:13Z</time>
      </trkpt>
      <trkpt lat="45.92913" lon="6.51476">
        <ele>1928</ele>
        <time>2022-04-10T12:25:17Z</time>
      </trkpt>
      <trkpt lat="45.92929" lon="6.5148">
        <ele>1921</ele>
        <time>2022-04-10T12:25:20Z</time>
      </trkpt>
      <trkpt lat="45.92935" lon="6.51471">
        <ele>1918</ele>
        <time>2022-04-10T12:25:22Z</time>
      </trkpt>
      <trkpt lat="45.92941" lon="6.51464">
        <ele>1912</ele>
        <time>2022-04-10T12:25:24Z</time>
      </trkpt>
      <trkpt lat="45.92952" lon="6.51456">
        <ele>1906</ele>
        <time>2022-04-10T12:25:27Z</time>
      </trkpt>
      <trkpt lat="45.92967" lon="6.51434">
        <ele>1892</ele>
        <time>2022-04-10T12:25:31Z</time>
      </trkpt>
      <trkpt lat="45.92975" lon="6.51426">
        <ele>1889</ele>
        <time>2022-04-10T12:25:33Z</time>
      </trkpt>
      <trkpt lat="45.92986" lon="6.51412">
        <ele>1883</ele>
        <time>2022-04-10T12:25:36Z</time>
      </trkpt>
      <trkpt lat="45.92994" lon="6.51412">
        <ele>1881</ele>
        <time>2022-04-10T12:25:39Z</time>
      </trkpt>
      <trkpt lat="45.93001" lon="6.51396">
        <ele>1878</ele>
        <time>2022-04-10T12:26:29Z</time>
      </trkpt>
      <trkpt lat="45.93" lon="6.51372">
        <ele>1868</ele>
        <time>2022-04-10T12:26:32Z</time>
      </trkpt>
      <trkpt lat="45.93" lon="6.51361">
        <ele>1865</ele>
        <time>2022-04-10T12:26:33Z</time>
      </trkpt>
      <trkpt lat="45.92993" lon="6.51343">
        <ele>1863</ele>
        <time>2022-04-10T12:26:35Z</time>
      </trkpt>
      <trkpt lat="45.92991" lon="6.51327">
        <ele>1861</ele>
        <time>2022-04-10T12:26:37Z</time>
      </trkpt>
      <trkpt lat="45.92993" lon="6.51313">
        <ele>1859</ele>
        <time>2022-04-10T12:26:39Z</time>
      </trkpt>
      <trkpt lat="45.9299" lon="6.51302">
        <ele>1857</ele>
        <time>2022-04-10T12:26:41Z</time>
      </trkpt>
      <trkpt lat="45.92988" lon="6.51288">
        <ele>1856</ele>
        <time>2022-04-10T12:26:43Z</time>
      </trkpt>
      <trkpt lat="45.92984" lon="6.51268">
        <ele>1852</ele>
        <time>2022-04-10T12:26:46Z</time>
      </trkpt>
      <trkpt lat="45.92983" lon="6.51252">
        <ele>1849</ele>
        <time>2022-04-10T12:26:48Z</time>
      </trkpt>
      <trkpt lat="45.92985" lon="6.51236">
        <ele>1845</ele>
        <time>2022-04-10T12:26:50Z</time>
      </trkpt>
      <trkpt lat="45.92996" lon="6.51223">
        <ele>1841</ele>
        <time>2022-04-10T12:26:53Z</time>
      </trkpt>
      <trkpt lat="45.93003" lon="6.51221">
        <ele>1835</ele>
        <time>2022-04-10T12:26:55Z</time>
      </trkpt>
      <trkpt lat="45.93005" lon="6.51205">
        <ele>1833</ele>
        <time>2022-04-10T12:27:17Z</time>
      </trkpt>
      <trkpt lat="45.93002" lon="6.51183">
        <ele>1828</ele>
        <time>2022-04-10T12:27:20Z</time>
      </trkpt>
      <trkpt lat="45.92999" lon="6.51166">
        <ele>1825</ele>
        <time>2022-04-10T12:27:22Z</time>
      </trkpt>
      <trkpt lat="45.92994" lon="6.51136">
        <ele>1820</ele>
        <time>2022-04-10T12:27:25Z</time>
      </trkpt>
      <trkpt lat="45.92992" lon="6.51117">
        <ele>1817</ele>
        <time>2022-04-10T12:27:27Z</time>
      </trkpt>
      <trkpt lat="45.92992" lon="6.511">
        <ele>1816</ele>
        <time>2022-04-10T12:27:29Z</time>
      </trkpt>
      <trkpt lat="45.92998" lon="6.51057">
        <ele>1811</ele>
        <time>2022-04-10T12:27:38Z</time>
      </trkpt>
      <trkpt lat="45.92996" lon="6.51043">
        <ele>1809</ele>
        <time>2022-04-10T12:27:52Z</time>
      </trkpt>
      <trkpt lat="45.92998" lon="6.51025">
        <ele>1807</ele>
        <time>2022-04-10T12:27:55Z</time>
      </trkpt>
      <trkpt lat="45.93005" lon="6.51011">
        <ele>1804</ele>
        <time>2022-04-10T12:27:57Z</time>
      </trkpt>
      <trkpt lat="45.93008" lon="6.50994">
        <ele>1802</ele>
        <time>2022-04-10T12:27:59Z</time>
      </trkpt>
      <trkpt lat="45.93" lon="6.50946">
        <ele>1795</ele>
        <time>2022-04-10T12:28:05Z</time>
      </trkpt>
      <trkpt lat="45.92995" lon="6.50936">
        <ele>1796</ele>
        <time>2022-04-10T12:28:07Z</time>
      </trkpt>
      <trkpt lat="45.9299" lon="6.50922">
        <ele>1796</ele>
        <time>2022-04-10T12:28:44Z</time>
      </trkpt>
      <trkpt lat="45.92996" lon="6.50911">
        <ele>1792</ele>
        <time>2022-04-10T12:28:47Z</time>
      </trkpt>
      <trkpt lat="45.93001" lon="6.50898">
        <ele>1789</ele>
        <time>2022-04-10T12:28:49Z</time>
      </trkpt>
      <trkpt lat="45.93003" lon="6.50885">
        <ele>1782</ele>
        <time>2022-04-10T12:28:51Z</time>
      </trkpt>
      <trkpt lat="45.92999" lon="6.5087">
        <ele>1777</ele>
        <time>2022-04-10T12:28:53Z</time>
      </trkpt>
      <trkpt lat="45.92982" lon="6.50854">
        <ele>1772</ele>
        <time>2022-04-10T12:28:59Z</time>
      </trkpt>
      <trkpt lat="45.92987" lon="6.50841">
        <ele>1771</ele>
        <time>2022-04-10T12:29:23Z</time>
      </trkpt>
      <trkpt lat="45.92993" lon="6.50835">
        <ele>1764</ele>
        <time>2022-04-10T12:29:26Z</time>
      </trkpt>
      <trkpt lat="45.93005" lon="6.50819">
        <ele>1753</ele>
        <time>2022-04-10T12:29:30Z</time>
      </trkpt>
      <trkpt lat="45.93013" lon="6.5081">
        <ele>1749</ele>
        <time>2022-04-10T12:29:33Z</time>
      </trkpt>
      <trkpt lat="45.92997" lon="6.50779">
        <ele>1740</ele>
        <time>2022-04-10T12:29:40Z</time>
      </trkpt>
      <trkpt lat="45.9299" lon="6.50763">
        <ele>1737</ele>
        <time>2022-04-10T12:29:45Z</time>
      </trkpt>
      <trkpt lat="45.92986" lon="6.50752">
        <ele>1733</ele>
        <time>2022-04-10T12:29:48Z</time>
      </trkpt>
      <trkpt lat="45.92979" lon="6.50739">
        <ele>1730</ele>
        <time>2022-04-10T12:29:52Z</time>
      </trkpt>
      <trkpt lat="45.92985" lon="6.50722">
        <ele>1727</ele>
        <time>2022-04-10T12:30:37Z</time>
      </trkpt>
      <trkpt lat="45.92985" lon="6.50709">
        <ele>1721</ele>
        <time>2022-04-10T12:30:40Z</time>
      </trkpt>
      <trkpt lat="45.92978" lon="6.50696">
        <ele>1718</ele>
        <time>2022-04-10T12:30:45Z</time>
      </trkpt>
      <trkpt lat="45.9298" lon="6.50685">
        <ele>1715</ele>
        <time>2022-04-10T12:30:47Z</time>
      </trkpt>
      <trkpt lat="45.92973" lon="6.50669">
        <ele>1708</ele>
        <time>2022-04-10T12:30:50Z</time>
      </trkpt>
      <trkpt lat="45.92964" lon="6.5066">
        <ele>1705</ele>
        <time>2022-04-10T12:30:52Z</time>
      </trkpt>
      <trkpt lat="45.92946" lon="6.50631">
        <ele>1696</ele>
        <time>2022-04-10T12:30:58Z</time>
      </trkpt>
      <trkpt lat="45.92941" lon="6.50609">
        <ele>1695</ele>
        <time>2022-04-10T12:31:01Z</time>
      </trkpt>
      <trkpt lat="45.92935" lon="6.50569">
        <ele>1691</ele>
        <time>2022-04-10T12:31:06Z</time>
      </trkpt>
      <trkpt lat="45.92931" lon="6.50549">
        <ele>1689</ele>
        <time>2022-04-10T12:31:09Z</time>
      </trkpt>
      <trkpt lat="45.92919" lon="6.50526">
        <ele>1686</ele>
        <time>2022-04-10T12:31:30Z</time>
      </trkpt>
      <trkpt lat="45.92911" lon="6.50515">
        <ele>1685</ele>
        <time>2022-04-10T12:31:36Z</time>
      </trkpt>
      <trkpt lat="45.92898" lon="6.50493">
        <ele>1685</ele>
        <time>2022-04-10T12:31:42Z</time>
      </trkpt>
      <trkpt lat="45.92893" lon="6.50488">
        <ele>1685</ele>
        <time>2022-04-10T12:31:55Z</time>
      </trkpt>
      <trkpt lat="45.92883" lon="6.50485">
        <ele>1686</ele>
        <time>2022-04-10T12:32:45Z</time>
      </trkpt>
      <trkpt lat="45.92865" lon="6.50486">
        <ele>1685</ele>
        <time>2022-04-10T12:32:51Z</time>
      </trkpt>
      <trkpt lat="45.92851" lon="6.50478">
        <ele>1684</ele>
        <time>2022-04-10T12:32:54Z</time>
      </trkpt>
      <trkpt lat="45.92849" lon="6.50464">
        <ele>1679</ele>
        <time>2022-04-10T12:33:01Z</time>
      </trkpt>
      <trkpt lat="45.92847" lon="6.50445">
        <ele>1674</ele>
        <time>2022-04-10T12:33:04Z</time>
      </trkpt>
      <trkpt lat="45.92846" lon="6.50433">
        <ele>1671</ele>
        <time>2022-04-10T12:33:06Z</time>
      </trkpt>
      <trkpt lat="45.9284" lon="6.50419">
        <ele>1669</ele>
        <time>2022-04-10T12:33:10Z</time>
      </trkpt>
      <trkpt lat="45.92834" lon="6.50404">
        <ele>1666</ele>
        <time>2022-04-10T12:33:14Z</time>
      </trkpt>
      <trkpt lat="45.92825" lon="6.50392">
        <ele>1664</ele>
        <time>2022-04-10T12:33:19Z</time>
      </trkpt>
      <trkpt lat="45.92824" lon="6.50382">
        <ele>1661</ele>
        <time>2022-04-10T12:33:43Z</time>
      </trkpt>
      <trkpt lat="45.92829" lon="6.50366">
        <ele>1660</ele>
        <time>2022-04-10T12:34:33Z</time>
      </trkpt>
      <trkpt lat="45.92839" lon="6.50357">
        <ele>1653</ele>
        <time>2022-04-10T12:34:39Z</time>
      </trkpt>
      <trkpt lat="45.92832" lon="6.50345">
        <ele>1650</ele>
        <time>2022-04-10T12:34:42Z</time>
      </trkpt>
      <trkpt lat="45.92838" lon="6.50325">
        <ele>1645</ele>
        <time>2022-04-10T12:34:52Z</time>
      </trkpt>
      <trkpt lat="45.92838" lon="6.50316">
        <ele>1639</ele>
        <time>2022-04-10T12:35:03Z</time>
      </trkpt>
      <trkpt lat="45.92841" lon="6.503">
        <ele>1638</ele>
        <time>2022-04-10T12:35:19Z</time>
      </trkpt>
      <trkpt lat="45.9283" lon="6.50293">
        <ele>1636</ele>
        <time>2022-04-10T12:35:25Z</time>
      </trkpt>
      <trkpt lat="45.92822" lon="6.5029">
        <ele>1635</ele>
        <time>2022-04-10T12:35:29Z</time>
      </trkpt>
      <trkpt lat="45.92821" lon="6.50291">
        <ele>1632</ele>
        <time>2022-04-10T12:37:45Z</time>
      </trkpt>
      <trkpt lat="45.92815" lon="6.50267">
        <ele>1632</ele>
        <time>2022-04-10T12:38:20Z</time>
      </trkpt>
      <trkpt lat="45.92815" lon="6.50241">
        <ele>1631</ele>
        <time>2022-04-10T12:38:24Z</time>
      </trkpt>
      <trkpt lat="45.92809" lon="6.50222">
        <ele>1631</ele>
        <time>2022-04-10T12:38:28Z</time>
      </trkpt>
      <trkpt lat="45.92799" lon="6.50211">
        <ele>1630</ele>
        <time>2022-04-10T12:38:33Z</time>
      </trkpt>
      <trkpt lat="45.92788" lon="6.50198">
        <ele>1629</ele>
        <time>2022-04-10T12:38:36Z</time>
      </trkpt>
      <trkpt lat="45.92779" lon="6.50187">
        <ele>1628</ele>
        <time>2022-04-10T12:38:38Z</time>
      </trkpt>
      <trkpt lat="45.92768" lon="6.50174">
        <ele>1626</ele>
        <time>2022-04-10T12:38:41Z</time>
      </trkpt>
      <trkpt lat="45.92747" lon="6.50135">
        <ele>1622</ele>
        <time>2022-04-10T12:38:50Z</time>
      </trkpt>
      <trkpt lat="45.92734" lon="6.50117">
        <ele>1618</ele>
        <time>2022-04-10T12:38:54Z</time>
      </trkpt>
      <trkpt lat="45.92726" lon="6.50103">
        <ele>1614</ele>
        <time>2022-04-10T12:38:57Z</time>
      </trkpt>
      <trkpt lat="45.92721" lon="6.50096">
        <ele>1611</ele>
        <time>2022-04-10T12:39:02Z</time>
      </trkpt>
      <trkpt lat="45.92709" lon="6.501">
        <ele>1610</ele>
        <time>2022-04-10T12:39:06Z</time>
      </trkpt>
      <trkpt lat="45.92701" lon="6.501">
        <ele>1605</ele>
        <time>2022-04-10T12:39:08Z</time>
      </trkpt>
      <trkpt lat="45.92694" lon="6.50098">
        <ele>1603</ele>
        <time>2022-04-10T12:39:18Z</time>
      </trkpt>
      <trkpt lat="45.92696" lon="6.50077">
        <ele>1598</ele>
        <time>2022-04-10T12:39:33Z</time>
      </trkpt>
      <trkpt lat="45.92694" lon="6.50059">
        <ele>1592</ele>
        <time>2022-04-10T12:39:37Z</time>
      </trkpt>
      <trkpt lat="45.92689" lon="6.50047">
        <ele>1590</ele>
        <time>2022-04-10T12:39:41Z</time>
      </trkpt>
      <trkpt lat="45.92691" lon="6.50032">
        <ele>1588</ele>
        <time>2022-04-10T12:39:45Z</time>
      </trkpt>
      <trkpt lat="45.92685" lon="6.50015">
        <ele>1584</ele>
        <time>2022-04-10T12:39:48Z</time>
      </trkpt>
      <trkpt lat="45.92695" lon="6.5001">
        <ele>1579</ele>
        <time>2022-04-10T12:39:52Z</time>
      </trkpt>
      <trkpt lat="45.92697" lon="6.49999">
        <ele>1573</ele>
        <time>2022-04-10T12:39:54Z</time>
      </trkpt>
      <trkpt lat="45.9269" lon="6.4998">
        <ele>1567</ele>
        <time>2022-04-10T12:40:11Z</time>
      </trkpt>
      <trkpt lat="45.92703" lon="6.4998">
        <ele>1562</ele>
        <time>2022-04-10T12:40:33Z</time>
      </trkpt>
      <trkpt lat="45.92713" lon="6.4998">
        <ele>1553</ele>
        <time>2022-04-10T12:40:35Z</time>
      </trkpt>
      <trkpt lat="45.92721" lon="6.49976">
        <ele>1547</ele>
        <time>2022-04-10T12:40:37Z</time>
      </trkpt>
      <trkpt lat="45.92732" lon="6.49968">
        <ele>1535</ele>
        <time>2022-04-10T12:40:42Z</time>
      </trkpt>
      <trkpt lat="45.92735" lon="6.49956">
        <ele>1533</ele>
        <time>2022-04-10T12:40:45Z</time>
      </trkpt>
      <trkpt lat="45.92743" lon="6.49954">
        <ele>1527</ele>
        <time>2022-04-10T12:40:47Z</time>
      </trkpt>
      <trkpt lat="45.92749" lon="6.49939">
        <ele>1524</ele>
        <time>2022-04-10T12:41:09Z</time>
      </trkpt>
      <trkpt lat="45.92757" lon="6.49929">
        <ele>1523</ele>
        <time>2022-04-10T12:41:22Z</time>
      </trkpt>
      <trkpt lat="45.92766" lon="6.49911">
        <ele>1520</ele>
        <time>2022-04-10T12:41:26Z</time>
      </trkpt>
      <trkpt lat="45.92778" lon="6.49898">
        <ele>1510</ele>
        <time>2022-04-10T12:41:30Z</time>
      </trkpt>
      <trkpt lat="45.92785" lon="6.4989">
        <ele>1503</ele>
        <time>2022-04-10T12:41:32Z</time>
      </trkpt>
      <trkpt lat="45.92804" lon="6.49861">
        <ele>1489</ele>
        <time>2022-04-10T12:41:38Z</time>
      </trkpt>
      <trkpt lat="45.9281" lon="6.49851">
        <ele>1487</ele>
        <time>2022-04-10T12:41:40Z</time>
      </trkpt>
      <trkpt lat="45.92818" lon="6.49841">
        <ele>1483</ele>
        <time>2022-04-10T12:41:42Z</time>
      </trkpt>
      <trkpt lat="45.9282" lon="6.49825">
        <ele>1481</ele>
        <time>2022-04-10T12:41:44Z</time>
      </trkpt>
      <trkpt lat="45.92824" lon="6.49794">
        <ele>1479</ele>
        <time>2022-04-10T12:41:48Z</time>
      </trkpt>
      <trkpt lat="45.92838" lon="6.49746">
        <ele>1477</ele>
        <time>2022-04-10T12:41:54Z</time>
      </trkpt>
      <trkpt lat="45.92844" lon="6.49725">
        <ele>1474</ele>
        <time>2022-04-10T12:41:56Z</time>
      </trkpt>
      <trkpt lat="45.92853" lon="6.49701">
        <ele>1471</ele>
        <time>2022-04-10T12:41:58Z</time>
      </trkpt>
      <trkpt lat="45.92857" lon="6.49691">
        <ele>1469</ele>
        <time>2022-04-10T12:41:59Z</time>
      </trkpt>
      <trkpt lat="45.92863" lon="6.49677">
        <ele>1467</ele>
        <time>2022-04-10T12:42:01Z</time>
      </trkpt>
      <trkpt lat="45.92866" lon="6.49667">
        <ele>1464</ele>
        <time>2022-04-10T12:42:04Z</time>
      </trkpt>
      <trkpt lat="45.92863" lon="6.49639">
        <ele>1460</ele>
        <time>2022-04-10T12:43:19Z</time>
      </trkpt>
      <trkpt lat="45.92853" lon="6.49614">
        <ele>1457</ele>
        <time>2022-04-10T12:44:00Z</time>
      </trkpt>
      <trkpt lat="45.92848" lon="6.496">
        <ele>1459</ele>
        <time>2022-04-10T12:44:36Z</time>
      </trkpt>
      <trkpt lat="45.92846" lon="6.49586">
        <ele>1460</ele>
        <time>2022-04-10T12:44:57Z</time>
      </trkpt>
      <trkpt lat="45.92847" lon="6.49576">
        <ele>1462</ele>
        <time>2022-04-10T12:45:10Z</time>
      </trkpt>
      <trkpt lat="45.92851" lon="6.49565">
        <ele>1465</ele>
        <time>2022-04-10T12:45:26Z</time>
      </trkpt>
      <trkpt lat="45.92848" lon="6.49544">
        <ele>1469</ele>
        <time>2022-04-10T12:45:48Z</time>
      </trkpt>
      <trkpt lat="45.92842" lon="6.49537">
        <ele>1471</ele>
        <time>2022-04-10T12:45:58Z</time>
      </trkpt>
      <trkpt lat="45.92835" lon="6.4953">
        <ele>1474</ele>
        <time>2022-04-10T12:46:16Z</time>
      </trkpt>
      <trkpt lat="45.92822" lon="6.49511">
        <ele>1476</ele>
        <time>2022-04-10T12:46:40Z</time>
      </trkpt>
      <trkpt lat="45.92805" lon="6.49495">
        <ele>1476</ele>
        <time>2022-04-10T12:47:05Z</time>
      </trkpt>
      <trkpt lat="45.92796" lon="6.49492">
        <ele>1476</ele>
        <time>2022-04-10T12:47:24Z</time>
      </trkpt>
      <trkpt lat="45.92788" lon="6.49487">
        <ele>1475</ele>
        <time>2022-04-10T12:47:31Z</time>
      </trkpt>
      <trkpt lat="45.92782" lon="6.49483">
        <ele>1475</ele>
        <time>2022-04-10T12:47:40Z</time>
      </trkpt>
      <trkpt lat="45.92775" lon="6.49481">
        <ele>1472</ele>
        <time>2022-04-10T12:48:03Z</time>
      </trkpt>
      <trkpt lat="45.92768" lon="6.49477">
        <ele>1472</ele>
        <time>2022-04-10T12:48:17Z</time>
      </trkpt>
      <trkpt lat="45.92761" lon="6.49471">
        <ele>1476</ele>
        <time>2022-04-10T12:48:32Z</time>
      </trkpt>
      <trkpt lat="45.92755" lon="6.49465">
        <ele>1477</ele>
        <time>2022-04-10T12:48:42Z</time>
      </trkpt>
      <trkpt lat="45.92751" lon="6.49458">
        <ele>1482</ele>
        <time>2022-04-10T12:48:59Z</time>
      </trkpt>
      <trkpt lat="45.92748" lon="6.49449">
        <ele>1483</ele>
        <time>2022-04-10T12:54:39Z</time>
      </trkpt>
      <trkpt lat="45.92727" lon="6.49405">
        <ele>1487</ele>
        <time>2022-04-10T12:55:11Z</time>
      </trkpt>
      <trkpt lat="45.92724" lon="6.49395">
        <ele>1488</ele>
        <time>2022-04-10T12:55:19Z</time>
      </trkpt>
      <trkpt lat="45.92713" lon="6.49368">
        <ele>1490</ele>
        <time>2022-04-10T12:55:37Z</time>
      </trkpt>
      <trkpt lat="45.92699" lon="6.49318">
        <ele>1489</ele>
        <time>2022-04-10T12:55:45Z</time>
      </trkpt>
      <trkpt lat="45.92695" lon="6.49305">
        <ele>1488</ele>
        <time>2022-04-10T12:55:47Z</time>
      </trkpt>
      <trkpt lat="45.92688" lon="6.49295">
        <ele>1487</ele>
        <time>2022-04-10T12:55:49Z</time>
      </trkpt>
      <trkpt lat="45.92682" lon="6.49288">
        <ele>1486</ele>
        <time>2022-04-10T12:55:51Z</time>
      </trkpt>
      <trkpt lat="45.92665" lon="6.49271">
        <ele>1483</ele>
        <time>2022-04-10T12:55:58Z</time>
      </trkpt>
      <trkpt lat="45.92649" lon="6.49261">
        <ele>1483</ele>
        <time>2022-04-10T12:56:20Z</time>
      </trkpt>
      <trkpt lat="45.92642" lon="6.49256">
        <ele>1482</ele>
        <time>2022-04-10T12:56:26Z</time>
      </trkpt>
      <trkpt lat="45.92633" lon="6.49254">
        <ele>1480</ele>
        <time>2022-04-10T12:56:43Z</time>
      </trkpt>
      <trkpt lat="45.92626" lon="6.4925">
        <ele>1479</ele>
        <time>2022-04-10T12:56:53Z</time>
      </trkpt>
      <trkpt lat="45.92614" lon="6.49233">
        <ele>1479</ele>
        <time>2022-04-10T12:57:15Z</time>
      </trkpt>
      <trkpt lat="45.92608" lon="6.49228">
        <ele>1479</ele>
        <time>2022-04-10T12:57:22Z</time>
      </trkpt>
      <trkpt lat="45.92602" lon="6.49226">
        <ele>1479</ele>
        <time>2022-04-10T12:57:28Z</time>
      </trkpt>
      <trkpt lat="45.92594" lon="6.49226">
        <ele>1480</ele>
        <time>2022-04-10T12:57:55Z</time>
      </trkpt>
      <trkpt lat="45.92589" lon="6.49226">
        <ele>1483</ele>
        <time>2022-04-10T12:58:12Z</time>
      </trkpt>
      <trkpt lat="45.92582" lon="6.49221">
        <ele>1484</ele>
        <time>2022-04-10T12:58:20Z</time>
      </trkpt>
      <trkpt lat="45.92577" lon="6.49219">
        <ele>1486</ele>
        <time>2022-04-10T12:58:26Z</time>
      </trkpt>
      <trkpt lat="45.92568" lon="6.49217">
        <ele>1488</ele>
        <time>2022-04-10T12:58:38Z</time>
      </trkpt>
      <trkpt lat="45.92554" lon="6.49217">
        <ele>1491</ele>
        <time>2022-04-10T12:59:00Z</time>
      </trkpt>
      <trkpt lat="45.92547" lon="6.49217">
        <ele>1492</ele>
        <time>2022-04-10T12:59:09Z</time>
      </trkpt>
      <trkpt lat="45.9254" lon="6.49214">
        <ele>1492</ele>
        <time>2022-04-10T12:59:16Z</time>
      </trkpt>
      <trkpt lat="45.92533" lon="6.4921">
        <ele>1492</ele>
        <time>2022-04-10T12:59:25Z</time>
      </trkpt>
      <trkpt lat="45.92525" lon="6.49207">
        <ele>1493</ele>
        <time>2022-04-10T12:59:33Z</time>
      </trkpt>
      <trkpt lat="45.92516" lon="6.49203">
        <ele>1494</ele>
        <time>2022-04-10T12:59:47Z</time>
      </trkpt>
      <trkpt lat="45.92497" lon="6.49197">
        <ele>1494</ele>
        <time>2022-04-10T13:00:12Z</time>
      </trkpt>
      <trkpt lat="45.92491" lon="6.49191">
        <ele>1495</ele>
        <time>2022-04-10T13:00:20Z</time>
      </trkpt>
      <trkpt lat="45.92477" lon="6.4918">
        <ele>1495</ele>
        <time>2022-04-10T13:00:41Z</time>
      </trkpt>
      <trkpt lat="45.92473" lon="6.49174">
        <ele>1496</ele>
        <time>2022-04-10T13:00:52Z</time>
      </trkpt>
      <trkpt lat="45.92464" lon="6.49172">
        <ele>1497</ele>
        <time>2022-04-10T13:01:17Z</time>
      </trkpt>
      <trkpt lat="45.92457" lon="6.49169">
        <ele>1498</ele>
        <time>2022-04-10T13:01:21Z</time>
      </trkpt>
      <trkpt lat="45.9245" lon="6.49166">
        <ele>1498</ele>
        <time>2022-04-10T13:01:30Z</time>
      </trkpt>
      <trkpt lat="45.92443" lon="6.49161">
        <ele>1499</ele>
        <time>2022-04-10T13:01:43Z</time>
      </trkpt>
      <trkpt lat="45.92438" lon="6.49157">
        <ele>1499</ele>
        <time>2022-04-10T13:02:05Z</time>
      </trkpt>
      <trkpt lat="45.92433" lon="6.49153">
        <ele>1498</ele>
        <time>2022-04-10T13:02:11Z</time>
      </trkpt>
      <trkpt lat="45.92425" lon="6.49134">
        <ele>1498</ele>
        <time>2022-04-10T13:02:39Z</time>
      </trkpt>
      <trkpt lat="45.92419" lon="6.49122">
        <ele>1498</ele>
        <time>2022-04-10T13:03:46Z</time>
      </trkpt>
      <trkpt lat="45.9241" lon="6.49122">
        <ele>1497</ele>
        <time>2022-04-10T13:03:58Z</time>
      </trkpt>
      <trkpt lat="45.92403" lon="6.49126">
        <ele>1497</ele>
        <time>2022-04-10T13:04:10Z</time>
      </trkpt>
      <trkpt lat="45.92394" lon="6.49127">
        <ele>1496</ele>
        <time>2022-04-10T13:04:25Z</time>
      </trkpt>
      <trkpt lat="45.92387" lon="6.49127">
        <ele>1495</ele>
        <time>2022-04-10T13:04:38Z</time>
      </trkpt>
      <trkpt lat="45.92379" lon="6.49129">
        <ele>1494</ele>
        <time>2022-04-10T13:04:43Z</time>
      </trkpt>
      <trkpt lat="45.92373" lon="6.49135">
        <ele>1493</ele>
        <time>2022-04-10T13:04:52Z</time>
      </trkpt>
      <trkpt lat="45.92367" lon="6.49132">
        <ele>1491</ele>
        <time>2022-04-10T13:05:12Z</time>
      </trkpt>
      <trkpt lat="45.92345" lon="6.49108">
        <ele>1488</ele>
        <time>2022-04-10T13:05:25Z</time>
      </trkpt>
      <trkpt lat="45.92318" lon="6.49088">
        <ele>1487</ele>
        <time>2022-04-10T13:05:35Z</time>
      </trkpt>
      <trkpt lat="45.923" lon="6.49093">
        <ele>1485</ele>
        <time>2022-04-10T13:05:45Z</time>
      </trkpt>
      <trkpt lat="45.92292" lon="6.49093">
        <ele>1485</ele>
        <time>2022-04-10T13:05:48Z</time>
      </trkpt>
      <trkpt lat="45.92278" lon="6.49076">
        <ele>1479</ele>
        <time>2022-04-10T13:05:53Z</time>
      </trkpt>
      <trkpt lat="45.92269" lon="6.49065">
        <ele>1476</ele>
        <time>2022-04-10T13:05:55Z</time>
      </trkpt>
      <trkpt lat="45.92262" lon="6.49053">
        <ele>1472</ele>
        <time>2022-04-10T13:05:57Z</time>
      </trkpt>
      <trkpt lat="45.92263" lon="6.49041">
        <ele>1471</ele>
        <time>2022-04-10T13:05:59Z</time>
      </trkpt>
      <trkpt lat="45.92227" lon="6.48979">
        <ele>1466</ele>
        <time>2022-04-10T13:06:18Z</time>
      </trkpt>
      <trkpt lat="45.92221" lon="6.48967">
        <ele>1463</ele>
        <time>2022-04-10T13:06:20Z</time>
      </trkpt>
      <trkpt lat="45.92168" lon="6.48889">
        <ele>1457</ele>
        <time>2022-04-10T13:06:34Z</time>
      </trkpt>
      <trkpt lat="45.92159" lon="6.4887">
        <ele>1457</ele>
        <time>2022-04-10T13:06:41Z</time>
      </trkpt>
      <trkpt lat="45.92161" lon="6.48861">
        <ele>1456</ele>
        <time>2022-04-10T13:07:21Z</time>
      </trkpt>
      <trkpt lat="45.92164" lon="6.48854">
        <ele>1456</ele>
        <time>2022-04-10T13:07:27Z</time>
      </trkpt>
      <trkpt lat="45.92167" lon="6.48846">
        <ele>1456</ele>
        <time>2022-04-10T13:07:36Z</time>
      </trkpt>
      <trkpt lat="45.9217" lon="6.48838">
        <ele>1457</ele>
        <time>2022-04-10T13:07:44Z</time>
      </trkpt>
      <trkpt lat="45.92174" lon="6.48824">
        <ele>1457</ele>
        <time>2022-04-10T13:07:59Z</time>
      </trkpt>
      <trkpt lat="45.92174" lon="6.48815">
        <ele>1457</ele>
        <time>2022-04-10T13:08:09Z</time>
      </trkpt>
      <trkpt lat="45.92172" lon="6.48805">
        <ele>1457</ele>
        <time>2022-04-10T13:08:18Z</time>
      </trkpt>
      <trkpt lat="45.92173" lon="6.48796">
        <ele>1457</ele>
        <time>2022-04-10T13:08:24Z</time>
      </trkpt>
      <trkpt lat="45.9217" lon="6.48785">
        <ele>1456</ele>
        <time>2022-04-10T13:08:33Z</time>
      </trkpt>
      <trkpt lat="45.92162" lon="6.48759">
        <ele>1456</ele>
        <time>2022-04-10T13:08:54Z</time>
      </trkpt>
      <trkpt lat="45.92158" lon="6.4875">
        <ele>1457</ele>
        <time>2022-04-10T13:09:03Z</time>
      </trkpt>
      <trkpt lat="45.92155" lon="6.48743">
        <ele>1458</ele>
        <time>2022-04-10T13:09:09Z</time>
      </trkpt>
      <trkpt lat="45.9215" lon="6.48734">
        <ele>1458</ele>
        <time>2022-04-10T13:09:21Z</time>
      </trkpt>
      <trkpt lat="45.92149" lon="6.48727">
        <ele>1458</ele>
        <time>2022-04-10T13:09:29Z</time>
      </trkpt>
      <trkpt lat="45.92147" lon="6.48718">
        <ele>1458</ele>
        <time>2022-04-10T13:09:37Z</time>
      </trkpt>
      <trkpt lat="45.92138" lon="6.487">
        <ele>1459</ele>
        <time>2022-04-10T13:09:50Z</time>
      </trkpt>
      <trkpt lat="45.92132" lon="6.48693">
        <ele>1460</ele>
        <time>2022-04-10T13:09:59Z</time>
      </trkpt>
      <trkpt lat="45.92129" lon="6.48671">
        <ele>1463</ele>
        <time>2022-04-10T13:10:23Z</time>
      </trkpt>
      <trkpt lat="45.92128" lon="6.48652">
        <ele>1464</ele>
        <time>2022-04-10T13:10:25Z</time>
      </trkpt>
      <trkpt lat="45.92134" lon="6.48639">
        <ele>1464</ele>
        <time>2022-04-10T13:10:27Z</time>
      </trkpt>
      <trkpt lat="45.92194" lon="6.485">
        <ele>1454</ele>
        <time>2022-04-10T13:10:51Z</time>
      </trkpt>
      <trkpt lat="45.92218" lon="6.48463">
        <ele>1450</ele>
        <time>2022-04-10T13:10:57Z</time>
      </trkpt>
      <trkpt lat="45.92232" lon="6.48449">
        <ele>1447</ele>
        <time>2022-04-10T13:11:00Z</time>
      </trkpt>
      <trkpt lat="45.92284" lon="6.48419">
        <ele>1443</ele>
        <time>2022-04-10T13:11:15Z</time>
      </trkpt>
      <trkpt lat="45.92373" lon="6.48377">
        <ele>1439</ele>
        <time>2022-04-10T13:11:46Z</time>
      </trkpt>
      <trkpt lat="45.92421" lon="6.48361">
        <ele>1440</ele>
        <time>2022-04-10T13:12:10Z</time>
      </trkpt>
      <trkpt lat="45.92436" lon="6.4835">
        <ele>1439</ele>
        <time>2022-04-10T13:12:40Z</time>
      </trkpt>
      <trkpt lat="45.9245" lon="6.48337">
        <ele>1438</ele>
        <time>2022-04-10T13:12:56Z</time>
      </trkpt>
      <trkpt lat="45.92456" lon="6.48326">
        <ele>1437</ele>
        <time>2022-04-10T13:13:06Z</time>
      </trkpt>
      <trkpt lat="45.92454" lon="6.48318">
        <ele>1437</ele>
        <time>2022-04-10T13:13:14Z</time>
      </trkpt>
      <trkpt lat="45.92446" lon="6.483">
        <ele>1436</ele>
        <time>2022-04-10T13:13:22Z</time>
      </trkpt>
      <trkpt lat="45.9244" lon="6.48293">
        <ele>1435</ele>
        <time>2022-04-10T13:13:26Z</time>
      </trkpt>
      <trkpt lat="45.92431" lon="6.48287">
        <ele>1434</ele>
        <time>2022-04-10T13:15:00Z</time>
      </trkpt>
      <trkpt lat="45.92426" lon="6.48284">
        <ele>1433</ele>
        <time>2022-04-10T13:15:04Z</time>
      </trkpt>
      <trkpt lat="45.92419" lon="6.48281">
        <ele>1432</ele>
        <time>2022-04-10T13:15:11Z</time>
      </trkpt>
    </trkseg>
  </trk>
</gpx>